<?xml version="1.0" encoding="UTF-8" standalone="no" ?>
<gpx xmlns="http://www.topografix.com/GPX/1/1" xmlns:xsi="http://www.w3.org/2001/XMLSchema-instance" xsi:schemaLocation="http://www.topografix.com/GPX/1/1 http://www.topografix.com/GPX/1/1/gpx.xsd" version="1.1" creator="VisuGPX - https://www.visugpx.com">
  <metadata>
    <name>Les calanques</name>
    <desc><![CDATA[Très belle randonnée, prévoir de l'eau et de bonnes chaussures, dénivelle important mais les paysages  valent bien quelques efforts]]></desc>
  </metadata>
  <trk>
    <name><![CDATA[GR98 De La Madrague (Marseille) au Massif de la Ste Baume (Bouches-du-Rhône) (2016)]]></name>
    <cmt><![CDATA[Randonnée avec le GR98 à travers les Calanques (Bouches-du-Rhône) de La Madrague (Marseille) au Massif de la Ste Baume. Gîtes d'étapes, Chambres d'hôtes, Hôtels, Camping, Refuges, Auberges.]]></cmt>
    <desc><![CDATA[Randonnée avec le GR98 à travers les Calanques (Bouches-du-Rhône) de La Madrague (Marseille) au Massif de la Ste Baume. Gîtes d'étapes, Chambres d'hôtes, Hôtels, Camping, Refuges, Auberges.]]></desc>
    <trkseg>
      <trkpt lat="43.23062" lon="5.35488">
        <ele>26</ele>
        <time>2016-10-27T08:20:47Z</time>
      </trkpt>
      <trkpt lat="43.2301" lon="5.35481">
        <ele>28</ele>
        <time>2016-10-27T08:21:07Z</time>
      </trkpt>
      <trkpt lat="43.2295" lon="5.35393">
        <ele>32</ele>
        <time>2016-10-27T08:21:27Z</time>
      </trkpt>
      <trkpt lat="43.22944" lon="5.35423">
        <ele>31</ele>
        <time>2016-10-27T08:21:47Z</time>
      </trkpt>
      <trkpt lat="43.22963" lon="5.35462">
        <ele>32</ele>
        <time>2016-10-27T08:22:07Z</time>
      </trkpt>
      <trkpt lat="43.22958" lon="5.35484">
        <ele>32</ele>
        <time>2016-10-27T08:22:27Z</time>
      </trkpt>
      <trkpt lat="43.22921" lon="5.35475">
        <ele>34</ele>
        <time>2016-10-27T08:22:47Z</time>
      </trkpt>
      <trkpt lat="43.22883" lon="5.35518">
        <ele>46</ele>
        <time>2016-10-27T08:23:07Z</time>
      </trkpt>
      <trkpt lat="43.22825" lon="5.35548">
        <ele>59</ele>
        <time>2016-10-27T08:23:27Z</time>
      </trkpt>
      <trkpt lat="43.22794" lon="5.35481">
        <ele>58</ele>
        <time>2016-10-27T08:23:47Z</time>
      </trkpt>
      <trkpt lat="43.22777" lon="5.35535">
        <ele>63</ele>
        <time>2016-10-27T08:24:07Z</time>
      </trkpt>
      <trkpt lat="43.22741" lon="5.35531">
        <ele>84</ele>
        <time>2016-10-27T08:24:27Z</time>
      </trkpt>
      <trkpt lat="43.22716" lon="5.35507">
        <ele>89</ele>
        <time>2016-10-27T08:24:47Z</time>
      </trkpt>
      <trkpt lat="43.22706" lon="5.35477">
        <ele>87</ele>
        <time>2016-10-27T08:25:07Z</time>
      </trkpt>
      <trkpt lat="43.22688" lon="5.35529">
        <ele>97</ele>
        <time>2016-10-27T08:25:27Z</time>
      </trkpt>
      <trkpt lat="43.22691" lon="5.35569">
        <ele>98</ele>
        <time>2016-10-27T08:25:47Z</time>
      </trkpt>
      <trkpt lat="43.2268" lon="5.35595">
        <ele>104</ele>
        <time>2016-10-27T08:26:07Z</time>
      </trkpt>
      <trkpt lat="43.22681" lon="5.35629">
        <ele>101</ele>
        <time>2016-10-27T08:26:27Z</time>
      </trkpt>
      <trkpt lat="43.22663" lon="5.35649">
        <ele>119</ele>
        <time>2016-10-27T08:26:47Z</time>
      </trkpt>
      <trkpt lat="43.22644" lon="5.35634">
        <ele>121</ele>
        <time>2016-10-27T08:27:07Z</time>
      </trkpt>
      <trkpt lat="43.22598" lon="5.35651">
        <ele>128</ele>
        <time>2016-10-27T08:27:27Z</time>
      </trkpt>
      <trkpt lat="43.22558" lon="5.35698">
        <ele>155</ele>
        <time>2016-10-27T08:27:47Z</time>
      </trkpt>
      <trkpt lat="43.22536" lon="5.35681">
        <ele>157</ele>
        <time>2016-10-27T08:28:07Z</time>
      </trkpt>
      <trkpt lat="43.22509" lon="5.35565">
        <ele>121</ele>
        <time>2016-10-27T08:28:27Z</time>
      </trkpt>
      <trkpt lat="43.22455" lon="5.35526">
        <ele>109</ele>
        <time>2016-10-27T08:28:47Z</time>
      </trkpt>
      <trkpt lat="43.2243" lon="5.35554">
        <ele>116</ele>
        <time>2016-10-27T08:29:07Z</time>
      </trkpt>
      <trkpt lat="43.22412" lon="5.3558">
        <ele>126</ele>
        <time>2016-10-27T08:29:27Z</time>
      </trkpt>
      <trkpt lat="43.22395" lon="5.35569">
        <ele>118</ele>
        <time>2016-10-27T08:29:47Z</time>
      </trkpt>
      <trkpt lat="43.22362" lon="5.35597">
        <ele>131</ele>
        <time>2016-10-27T08:30:07Z</time>
      </trkpt>
      <trkpt lat="43.22344" lon="5.35642">
        <ele>137</ele>
        <time>2016-10-27T08:30:27Z</time>
      </trkpt>
      <trkpt lat="43.2235" lon="5.35683">
        <ele>150</ele>
        <time>2016-10-27T08:30:47Z</time>
      </trkpt>
      <trkpt lat="43.2232" lon="5.35642">
        <ele>144</ele>
        <time>2016-10-27T08:31:07Z</time>
      </trkpt>
      <trkpt lat="43.22306" lon="5.35546">
        <ele>125</ele>
        <time>2016-10-27T08:31:27Z</time>
      </trkpt>
      <trkpt lat="43.22319" lon="5.3549">
        <ele>110</ele>
        <time>2016-10-27T08:31:47Z</time>
      </trkpt>
      <trkpt lat="43.22294" lon="5.35434">
        <ele>109</ele>
        <time>2016-10-27T08:32:07Z</time>
      </trkpt>
      <trkpt lat="43.22298" lon="5.35404">
        <ele>99</ele>
        <time>2016-10-27T08:32:27Z</time>
      </trkpt>
      <trkpt lat="43.22269" lon="5.35393">
        <ele>103</ele>
        <time>2016-10-27T08:32:47Z</time>
      </trkpt>
      <trkpt lat="43.22223" lon="5.35443">
        <ele>132</ele>
        <time>2016-10-27T08:33:07Z</time>
      </trkpt>
      <trkpt lat="43.22215" lon="5.35492">
        <ele>138</ele>
        <time>2016-10-27T08:33:27Z</time>
      </trkpt>
      <trkpt lat="43.22184" lon="5.35436">
        <ele>139</ele>
        <time>2016-10-27T08:33:47Z</time>
      </trkpt>
      <trkpt lat="43.22201" lon="5.35355">
        <ele>120</ele>
        <time>2016-10-27T08:34:07Z</time>
      </trkpt>
      <trkpt lat="43.22201" lon="5.35305">
        <ele>109</ele>
        <time>2016-10-27T08:34:27Z</time>
      </trkpt>
      <trkpt lat="43.22181" lon="5.35301">
        <ele>110</ele>
        <time>2016-10-27T08:34:47Z</time>
      </trkpt>
      <trkpt lat="43.22178" lon="5.35269">
        <ele>106</ele>
        <time>2016-10-27T08:35:07Z</time>
      </trkpt>
      <trkpt lat="43.22137" lon="5.35177">
        <ele>81</ele>
        <time>2016-10-27T08:35:27Z</time>
      </trkpt>
      <trkpt lat="43.2212" lon="5.35181">
        <ele>80</ele>
        <time>2016-10-27T08:35:47Z</time>
      </trkpt>
      <trkpt lat="43.22117" lon="5.35245">
        <ele>85</ele>
        <time>2016-10-27T08:36:07Z</time>
      </trkpt>
      <trkpt lat="43.22087" lon="5.35232">
        <ele>82</ele>
        <time>2016-10-27T08:36:27Z</time>
      </trkpt>
      <trkpt lat="43.22059" lon="5.3525">
        <ele>88</ele>
        <time>2016-10-27T08:36:47Z</time>
      </trkpt>
      <trkpt lat="43.2205" lon="5.35209">
        <ele>88</ele>
        <time>2016-10-27T08:37:07Z</time>
      </trkpt>
      <trkpt lat="43.22067" lon="5.35151">
        <ele>70</ele>
        <time>2016-10-27T08:37:27Z</time>
      </trkpt>
      <trkpt lat="43.22067" lon="5.35072">
        <ele>54</ele>
        <time>2016-10-27T08:37:47Z</time>
      </trkpt>
      <trkpt lat="43.22047" lon="5.3505">
        <ele>55</ele>
        <time>2016-10-27T08:38:07Z</time>
      </trkpt>
      <trkpt lat="43.22021" lon="5.35072">
        <ele>60</ele>
        <time>2016-10-27T08:38:27Z</time>
      </trkpt>
      <trkpt lat="43.21998" lon="5.35039">
        <ele>64</ele>
        <time>2016-10-27T08:38:47Z</time>
      </trkpt>
      <trkpt lat="43.21976" lon="5.35037">
        <ele>65</ele>
        <time>2016-10-27T08:39:07Z</time>
      </trkpt>
      <trkpt lat="43.21959" lon="5.35018">
        <ele>65</ele>
        <time>2016-10-27T08:39:27Z</time>
      </trkpt>
      <trkpt lat="43.21932" lon="5.3505">
        <ele>70</ele>
        <time>2016-10-27T08:39:47Z</time>
      </trkpt>
      <trkpt lat="43.2191" lon="5.35011">
        <ele>66</ele>
        <time>2016-10-27T08:40:07Z</time>
      </trkpt>
      <trkpt lat="43.21884" lon="5.34943">
        <ele>53</ele>
        <time>2016-10-27T08:40:27Z</time>
      </trkpt>
      <trkpt lat="43.21856" lon="5.34971">
        <ele>55</ele>
        <time>2016-10-27T08:40:47Z</time>
      </trkpt>
      <trkpt lat="43.2181" lon="5.34975">
        <ele>47</ele>
        <time>2016-10-27T08:41:07Z</time>
      </trkpt>
      <trkpt lat="43.21799" lon="5.35039">
        <ele>54</ele>
        <time>2016-10-27T08:41:27Z</time>
      </trkpt>
      <trkpt lat="43.21801" lon="5.35166">
        <ele>64</ele>
        <time>2016-10-27T08:41:47Z</time>
      </trkpt>
      <trkpt lat="43.21821" lon="5.35194">
        <ele>73</ele>
        <time>2016-10-27T08:42:07Z</time>
      </trkpt>
      <trkpt lat="43.21796" lon="5.35217">
        <ele>72</ele>
        <time>2016-10-27T08:42:27Z</time>
      </trkpt>
      <trkpt lat="43.21738" lon="5.35211">
        <ele>60</ele>
        <time>2016-10-27T08:42:47Z</time>
      </trkpt>
      <trkpt lat="43.21737" lon="5.35252">
        <ele>68</ele>
        <time>2016-10-27T08:43:07Z</time>
      </trkpt>
      <trkpt lat="43.21762" lon="5.35273">
        <ele>77</ele>
        <time>2016-10-27T08:43:27Z</time>
      </trkpt>
      <trkpt lat="43.21793" lon="5.3534">
        <ele>92</ele>
        <time>2016-10-27T08:43:47Z</time>
      </trkpt>
      <trkpt lat="43.21762" lon="5.35361">
        <ele>88</ele>
        <time>2016-10-27T08:44:07Z</time>
      </trkpt>
      <trkpt lat="43.2169" lon="5.35441">
        <ele>68</ele>
        <time>2016-10-27T08:44:27Z</time>
      </trkpt>
      <trkpt lat="43.21651" lon="5.35417">
        <ele>61</ele>
        <time>2016-10-27T08:44:47Z</time>
      </trkpt>
      <trkpt lat="43.21657" lon="5.35494">
        <ele>53</ele>
        <time>2016-10-27T08:45:07Z</time>
      </trkpt>
      <trkpt lat="43.21674" lon="5.35518">
        <ele>53</ele>
        <time>2016-10-27T08:45:27Z</time>
      </trkpt>
      <trkpt lat="43.21671" lon="5.35599">
        <ele>43</ele>
        <time>2016-10-27T08:45:47Z</time>
      </trkpt>
      <trkpt lat="43.21654" lon="5.35612">
        <ele>34</ele>
        <time>2016-10-27T08:46:07Z</time>
      </trkpt>
      <trkpt lat="43.21637" lon="5.35606">
        <ele>33</ele>
        <time>2016-10-27T08:46:27Z</time>
      </trkpt>
      <trkpt lat="43.21588" lon="5.35632">
        <ele>30</ele>
        <time>2016-10-27T08:46:47Z</time>
      </trkpt>
      <trkpt lat="43.21566" lon="5.35623">
        <ele>25</ele>
        <time>2016-10-27T08:47:07Z</time>
      </trkpt>
      <trkpt lat="43.21545" lon="5.35634">
        <ele>25</ele>
        <time>2016-10-27T08:47:27Z</time>
      </trkpt>
      <trkpt lat="43.21516" lon="5.35593">
        <ele>23</ele>
        <time>2016-10-27T08:47:47Z</time>
      </trkpt>
      <trkpt lat="43.21515" lon="5.35574">
        <ele>25</ele>
        <time>2016-10-27T08:48:07Z</time>
      </trkpt>
      <trkpt lat="43.21454" lon="5.35537">
        <ele>20</ele>
        <time>2016-10-27T08:48:27Z</time>
      </trkpt>
      <trkpt lat="43.21419" lon="5.35524">
        <ele>19</ele>
        <time>2016-10-27T08:48:47Z</time>
      </trkpt>
      <trkpt lat="43.21383" lon="5.35546">
        <ele>18</ele>
        <time>2016-10-27T08:49:07Z</time>
      </trkpt>
      <trkpt lat="43.21269" lon="5.35421">
        <ele>13</ele>
        <time>2016-10-27T08:49:27Z</time>
      </trkpt>
      <trkpt lat="43.21244" lon="5.35462">
        <ele>23</ele>
        <time>2016-10-27T08:49:47Z</time>
      </trkpt>
      <trkpt lat="43.21186" lon="5.35434">
        <ele>30</ele>
        <time>2016-10-27T08:50:07Z</time>
      </trkpt>
      <trkpt lat="43.21165" lon="5.35402">
        <ele>32</ele>
        <time>2016-10-27T08:50:27Z</time>
      </trkpt>
      <trkpt lat="43.21119" lon="5.35421">
        <ele>48</ele>
        <time>2016-10-27T08:50:47Z</time>
      </trkpt>
      <trkpt lat="43.21083" lon="5.35411">
        <ele>43</ele>
        <time>2016-10-27T08:51:07Z</time>
      </trkpt>
      <trkpt lat="43.21032" lon="5.35449">
        <ele>43</ele>
        <time>2016-10-27T08:51:27Z</time>
      </trkpt>
      <trkpt lat="43.21002" lon="5.35539">
        <ele>55</ele>
        <time>2016-10-27T08:51:47Z</time>
      </trkpt>
      <trkpt lat="43.20983" lon="5.35589">
        <ele>39</ele>
        <time>2016-10-27T08:52:07Z</time>
      </trkpt>
      <trkpt lat="43.20996" lon="5.35662">
        <ele>40</ele>
        <time>2016-10-27T08:52:27Z</time>
      </trkpt>
      <trkpt lat="43.20978" lon="5.35739">
        <ele>31</ele>
        <time>2016-10-27T08:52:47Z</time>
      </trkpt>
      <trkpt lat="43.20988" lon="5.35752">
        <ele>33</ele>
        <time>2016-10-27T08:53:07Z</time>
      </trkpt>
      <trkpt lat="43.20989" lon="5.35803">
        <ele>30</ele>
        <time>2016-10-27T08:53:27Z</time>
      </trkpt>
      <trkpt lat="43.20966" lon="5.35844">
        <ele>28</ele>
        <time>2016-10-27T08:53:47Z</time>
      </trkpt>
      <trkpt lat="43.20964" lon="5.35911">
        <ele>28</ele>
        <time>2016-10-27T08:54:07Z</time>
      </trkpt>
      <trkpt lat="43.20982" lon="5.36024">
        <ele>22</ele>
        <time>2016-10-27T08:54:27Z</time>
      </trkpt>
      <trkpt lat="43.20978" lon="5.36082">
        <ele>19</ele>
        <time>2016-10-27T08:54:47Z</time>
      </trkpt>
      <trkpt lat="43.21002" lon="5.36097">
        <ele>27</ele>
        <time>2016-10-27T08:55:07Z</time>
      </trkpt>
      <trkpt lat="43.20994" lon="5.3614">
        <ele>17</ele>
        <time>2016-10-27T08:55:27Z</time>
      </trkpt>
      <trkpt lat="43.21" lon="5.36198">
        <ele>26</ele>
        <time>2016-10-27T08:55:47Z</time>
      </trkpt>
      <trkpt lat="43.21038" lon="5.3622">
        <ele>29</ele>
        <time>2016-10-27T08:56:07Z</time>
      </trkpt>
      <trkpt lat="43.21043" lon="5.36239">
        <ele>29</ele>
        <time>2016-10-27T08:56:27Z</time>
      </trkpt>
      <trkpt lat="43.21021" lon="5.3623">
        <ele>27</ele>
        <time>2016-10-27T08:56:47Z</time>
      </trkpt>
      <trkpt lat="43.20994" lon="5.36235">
        <ele>23</ele>
        <time>2016-10-27T08:57:07Z</time>
      </trkpt>
      <trkpt lat="43.20966" lon="5.36189">
        <ele>21</ele>
        <time>2016-10-27T08:57:27Z</time>
      </trkpt>
      <trkpt lat="43.20906" lon="5.36187">
        <ele>15</ele>
        <time>2016-10-27T08:57:47Z</time>
      </trkpt>
      <trkpt lat="43.20835" lon="5.36282">
        <ele>24</ele>
        <time>2016-10-27T08:58:07Z</time>
      </trkpt>
      <trkpt lat="43.20817" lon="5.36348">
        <ele>18</ele>
        <time>2016-10-27T08:58:27Z</time>
      </trkpt>
      <trkpt lat="43.20795" lon="5.36368">
        <ele>16</ele>
        <time>2016-10-27T08:58:47Z</time>
      </trkpt>
      <trkpt lat="43.2078" lon="5.3641">
        <ele>15</ele>
        <time>2016-10-27T08:59:07Z</time>
      </trkpt>
      <trkpt lat="43.20774" lon="5.36496">
        <ele>16</ele>
        <time>2016-10-27T08:59:27Z</time>
      </trkpt>
      <trkpt lat="43.2078" lon="5.36644">
        <ele>17</ele>
        <time>2016-10-27T08:59:47Z</time>
      </trkpt>
      <trkpt lat="43.2081" lon="5.36741">
        <ele>15</ele>
        <time>2016-10-27T09:00:07Z</time>
      </trkpt>
      <trkpt lat="43.20835" lon="5.36908">
        <ele>17</ele>
        <time>2016-10-27T09:00:27Z</time>
      </trkpt>
      <trkpt lat="43.20864" lon="5.37016">
        <ele>15</ele>
        <time>2016-10-27T09:00:47Z</time>
      </trkpt>
      <trkpt lat="43.2095" lon="5.3714">
        <ele>21</ele>
        <time>2016-10-27T09:01:07Z</time>
      </trkpt>
      <trkpt lat="43.21008" lon="5.37166">
        <ele>30</ele>
        <time>2016-10-27T09:01:27Z</time>
      </trkpt>
      <trkpt lat="43.21038" lon="5.37265">
        <ele>22</ele>
        <time>2016-10-27T09:01:47Z</time>
      </trkpt>
      <trkpt lat="43.21038" lon="5.37312">
        <ele>20</ele>
        <time>2016-10-27T09:02:07Z</time>
      </trkpt>
      <trkpt lat="43.20988" lon="5.37425">
        <ele>9</ele>
        <time>2016-10-27T09:02:27Z</time>
      </trkpt>
      <trkpt lat="43.20977" lon="5.37486">
        <ele>10</ele>
        <time>2016-10-27T09:02:47Z</time>
      </trkpt>
      <trkpt lat="43.21007" lon="5.37535">
        <ele>22</ele>
        <time>2016-10-27T09:03:07Z</time>
      </trkpt>
      <trkpt lat="43.21028" lon="5.37638">
        <ele>31</ele>
        <time>2016-10-27T09:03:27Z</time>
      </trkpt>
      <trkpt lat="43.2105" lon="5.37661">
        <ele>37</ele>
        <time>2016-10-27T09:03:47Z</time>
      </trkpt>
      <trkpt lat="43.21038" lon="5.37719">
        <ele>33</ele>
        <time>2016-10-27T09:04:07Z</time>
      </trkpt>
      <trkpt lat="43.21047" lon="5.37756">
        <ele>31</ele>
        <time>2016-10-27T09:04:27Z</time>
      </trkpt>
      <trkpt lat="43.21068" lon="5.37786">
        <ele>34</ele>
        <time>2016-10-27T09:04:47Z</time>
      </trkpt>
      <trkpt lat="43.21072" lon="5.37814">
        <ele>34</ele>
        <time>2016-10-27T09:05:07Z</time>
      </trkpt>
      <trkpt lat="43.21097" lon="5.3785">
        <ele>50</ele>
        <time>2016-10-27T09:05:27Z</time>
      </trkpt>
      <trkpt lat="43.21088" lon="5.37876">
        <ele>49</ele>
        <time>2016-10-27T09:05:47Z</time>
      </trkpt>
      <trkpt lat="43.21088" lon="5.37915">
        <ele>34</ele>
        <time>2016-10-27T09:06:07Z</time>
      </trkpt>
      <trkpt lat="43.21114" lon="5.37934">
        <ele>42</ele>
        <time>2016-10-27T09:06:27Z</time>
      </trkpt>
      <trkpt lat="43.21144" lon="5.37996">
        <ele>47</ele>
        <time>2016-10-27T09:06:47Z</time>
      </trkpt>
      <trkpt lat="43.21118" lon="5.38022">
        <ele>37</ele>
        <time>2016-10-27T09:07:07Z</time>
      </trkpt>
      <trkpt lat="43.21118" lon="5.3805">
        <ele>38</ele>
        <time>2016-10-27T09:07:27Z</time>
      </trkpt>
      <trkpt lat="43.21077" lon="5.38071">
        <ele>21</ele>
        <time>2016-10-27T09:07:47Z</time>
      </trkpt>
      <trkpt lat="43.21072" lon="5.38114">
        <ele>25</ele>
        <time>2016-10-27T09:08:07Z</time>
      </trkpt>
      <trkpt lat="43.21044" lon="5.38125">
        <ele>22</ele>
        <time>2016-10-27T09:08:27Z</time>
      </trkpt>
      <trkpt lat="43.21033" lon="5.38243">
        <ele>26</ele>
        <time>2016-10-27T09:08:47Z</time>
      </trkpt>
      <trkpt lat="43.21127" lon="5.38342">
        <ele>37</ele>
        <time>2016-10-27T09:09:07Z</time>
      </trkpt>
      <trkpt lat="43.21175" lon="5.38327">
        <ele>67</ele>
        <time>2016-10-27T09:09:27Z</time>
      </trkpt>
      <trkpt lat="43.21183" lon="5.38365">
        <ele>60</ele>
        <time>2016-10-27T09:09:47Z</time>
      </trkpt>
      <trkpt lat="43.21236" lon="5.38378">
        <ele>68</ele>
        <time>2016-10-27T09:10:07Z</time>
      </trkpt>
      <trkpt lat="43.21272" lon="5.38428">
        <ele>89</ele>
        <time>2016-10-27T09:10:27Z</time>
      </trkpt>
      <trkpt lat="43.21218" lon="5.38434">
        <ele>62</ele>
        <time>2016-10-27T09:10:47Z</time>
      </trkpt>
      <trkpt lat="43.21194" lon="5.385">
        <ele>65</ele>
        <time>2016-10-27T09:11:07Z</time>
      </trkpt>
      <trkpt lat="43.21149" lon="5.38494">
        <ele>38</ele>
        <time>2016-10-27T09:11:27Z</time>
      </trkpt>
      <trkpt lat="43.21107" lon="5.38515">
        <ele>33</ele>
        <time>2016-10-27T09:11:47Z</time>
      </trkpt>
      <trkpt lat="43.21135" lon="5.38586">
        <ele>43</ele>
        <time>2016-10-27T09:12:07Z</time>
      </trkpt>
      <trkpt lat="43.21158" lon="5.38631">
        <ele>45</ele>
        <time>2016-10-27T09:12:27Z</time>
      </trkpt>
      <trkpt lat="43.2115" lon="5.38646">
        <ele>45</ele>
        <time>2016-10-27T09:12:47Z</time>
      </trkpt>
      <trkpt lat="43.21199" lon="5.38659">
        <ele>71</ele>
        <time>2016-10-27T09:13:07Z</time>
      </trkpt>
      <trkpt lat="43.21266" lon="5.38713">
        <ele>113</ele>
        <time>2016-10-27T09:13:27Z</time>
      </trkpt>
      <trkpt lat="43.21232" lon="5.38749">
        <ele>85</ele>
        <time>2016-10-27T09:13:47Z</time>
      </trkpt>
      <trkpt lat="43.21249" lon="5.38792">
        <ele>86</ele>
        <time>2016-10-27T09:14:07Z</time>
      </trkpt>
      <trkpt lat="43.21238" lon="5.38827">
        <ele>92</ele>
        <time>2016-10-27T09:14:27Z</time>
      </trkpt>
      <trkpt lat="43.21249" lon="5.38852">
        <ele>88</ele>
        <time>2016-10-27T09:14:47Z</time>
      </trkpt>
      <trkpt lat="43.21261" lon="5.38921">
        <ele>102</ele>
        <time>2016-10-27T09:15:07Z</time>
      </trkpt>
      <trkpt lat="43.21324" lon="5.38938">
        <ele>119</ele>
        <time>2016-10-27T09:15:27Z</time>
      </trkpt>
      <trkpt lat="43.21349" lon="5.38927">
        <ele>146</ele>
        <time>2016-10-27T09:15:47Z</time>
      </trkpt>
      <trkpt lat="43.21379" lon="5.3894">
        <ele>157</ele>
        <time>2016-10-27T09:16:07Z</time>
      </trkpt>
      <trkpt lat="43.21383" lon="5.3897">
        <ele>156</ele>
        <time>2016-10-27T09:16:27Z</time>
      </trkpt>
      <trkpt lat="43.21396" lon="5.38998">
        <ele>161</ele>
        <time>2016-10-27T09:16:47Z</time>
      </trkpt>
      <trkpt lat="43.21394" lon="5.39056">
        <ele>161</ele>
        <time>2016-10-27T09:17:07Z</time>
      </trkpt>
      <trkpt lat="43.21366" lon="5.39101">
        <ele>158</ele>
        <time>2016-10-27T09:17:27Z</time>
      </trkpt>
      <trkpt lat="43.21387" lon="5.3917">
        <ele>163</ele>
        <time>2016-10-27T09:17:47Z</time>
      </trkpt>
      <trkpt lat="43.21398" lon="5.39215">
        <ele>162</ele>
        <time>2016-10-27T09:18:07Z</time>
      </trkpt>
      <trkpt lat="43.21405" lon="5.39241">
        <ele>168</ele>
        <time>2016-10-27T09:18:27Z</time>
      </trkpt>
      <trkpt lat="43.21398" lon="5.39303">
        <ele>152</ele>
        <time>2016-10-27T09:18:47Z</time>
      </trkpt>
      <trkpt lat="43.21412" lon="5.39327">
        <ele>165</ele>
        <time>2016-10-27T09:19:07Z</time>
      </trkpt>
      <trkpt lat="43.21391" lon="5.39361">
        <ele>147</ele>
        <time>2016-10-27T09:19:27Z</time>
      </trkpt>
      <trkpt lat="43.21383" lon="5.39391">
        <ele>144</ele>
        <time>2016-10-27T09:19:47Z</time>
      </trkpt>
      <trkpt lat="43.21418" lon="5.39406">
        <ele>182</ele>
        <time>2016-10-27T09:20:07Z</time>
      </trkpt>
      <trkpt lat="43.21393" lon="5.39436">
        <ele>146</ele>
        <time>2016-10-27T09:20:27Z</time>
      </trkpt>
      <trkpt lat="43.21391" lon="5.39505">
        <ele>132</ele>
        <time>2016-10-27T09:20:47Z</time>
      </trkpt>
      <trkpt lat="43.2141" lon="5.39526">
        <ele>133</ele>
        <time>2016-10-27T09:21:07Z</time>
      </trkpt>
      <trkpt lat="43.21415" lon="5.39569">
        <ele>124</ele>
        <time>2016-10-27T09:21:27Z</time>
      </trkpt>
      <trkpt lat="43.21427" lon="5.39597">
        <ele>131</ele>
        <time>2016-10-27T09:21:47Z</time>
      </trkpt>
      <trkpt lat="43.21491" lon="5.39586">
        <ele>163</ele>
        <time>2016-10-27T09:22:07Z</time>
      </trkpt>
      <trkpt lat="43.21501" lon="5.39606">
        <ele>180</ele>
        <time>2016-10-27T09:22:27Z</time>
      </trkpt>
      <trkpt lat="43.21535" lon="5.3958">
        <ele>189</ele>
        <time>2016-10-27T09:22:47Z</time>
      </trkpt>
      <trkpt lat="43.21546" lon="5.3961">
        <ele>184</ele>
        <time>2016-10-27T09:23:07Z</time>
      </trkpt>
      <trkpt lat="43.21582" lon="5.39565">
        <ele>193</ele>
        <time>2016-10-27T09:23:27Z</time>
      </trkpt>
      <trkpt lat="43.21585" lon="5.39533">
        <ele>212</ele>
        <time>2016-10-27T09:23:47Z</time>
      </trkpt>
      <trkpt lat="43.21631" lon="5.39515">
        <ele>216</ele>
        <time>2016-10-27T09:24:07Z</time>
      </trkpt>
      <trkpt lat="43.21663" lon="5.39569">
        <ele>221</ele>
        <time>2016-10-27T09:24:27Z</time>
      </trkpt>
      <trkpt lat="43.21654" lon="5.39603">
        <ele>220</ele>
        <time>2016-10-27T09:24:47Z</time>
      </trkpt>
      <trkpt lat="43.21646" lon="5.39691">
        <ele>225</ele>
        <time>2016-10-27T09:25:07Z</time>
      </trkpt>
      <trkpt lat="43.21629" lon="5.39721">
        <ele>219</ele>
        <time>2016-10-27T09:25:27Z</time>
      </trkpt>
      <trkpt lat="43.21638" lon="5.39745">
        <ele>224</ele>
        <time>2016-10-27T09:25:47Z</time>
      </trkpt>
      <trkpt lat="43.2164" lon="5.39784">
        <ele>224</ele>
        <time>2016-10-27T09:26:07Z</time>
      </trkpt>
      <trkpt lat="43.21601" lon="5.39812">
        <ele>212</ele>
        <time>2016-10-27T09:26:27Z</time>
      </trkpt>
      <trkpt lat="43.21571" lon="5.39846">
        <ele>186</ele>
        <time>2016-10-27T09:26:47Z</time>
      </trkpt>
      <trkpt lat="43.2157" lon="5.39872">
        <ele>182</ele>
        <time>2016-10-27T09:27:07Z</time>
      </trkpt>
      <trkpt lat="43.21593" lon="5.39908">
        <ele>210</ele>
        <time>2016-10-27T09:27:27Z</time>
      </trkpt>
      <trkpt lat="43.21577" lon="5.39951">
        <ele>182</ele>
        <time>2016-10-27T09:27:47Z</time>
      </trkpt>
      <trkpt lat="43.2162" lon="5.4">
        <ele>214</ele>
        <time>2016-10-27T09:28:07Z</time>
      </trkpt>
      <trkpt lat="43.2161" lon="5.40069">
        <ele>208</ele>
        <time>2016-10-27T09:28:27Z</time>
      </trkpt>
      <trkpt lat="43.21629" lon="5.40101">
        <ele>211</ele>
        <time>2016-10-27T09:28:47Z</time>
      </trkpt>
      <trkpt lat="43.21629" lon="5.4014">
        <ele>209</ele>
        <time>2016-10-27T09:29:07Z</time>
      </trkpt>
      <trkpt lat="43.21645" lon="5.40181">
        <ele>209</ele>
        <time>2016-10-27T09:29:27Z</time>
      </trkpt>
      <trkpt lat="43.21642" lon="5.40221">
        <ele>203</ele>
        <time>2016-10-27T09:29:47Z</time>
      </trkpt>
      <trkpt lat="43.21656" lon="5.40258">
        <ele>213</ele>
        <time>2016-10-27T09:30:07Z</time>
      </trkpt>
      <trkpt lat="43.21659" lon="5.40335">
        <ele>217</ele>
        <time>2016-10-27T09:30:27Z</time>
      </trkpt>
      <trkpt lat="43.21674" lon="5.40361">
        <ele>239</ele>
        <time>2016-10-27T09:30:47Z</time>
      </trkpt>
      <trkpt lat="43.21685" lon="5.40496">
        <ele>235</ele>
        <time>2016-10-27T09:31:07Z</time>
      </trkpt>
      <trkpt lat="43.21643" lon="5.40513">
        <ele>222</ele>
        <time>2016-10-27T09:31:27Z</time>
      </trkpt>
      <trkpt lat="43.21637" lon="5.4055">
        <ele>218</ele>
        <time>2016-10-27T09:31:47Z</time>
      </trkpt>
      <trkpt lat="43.21657" lon="5.40629">
        <ele>214</ele>
        <time>2016-10-27T09:32:07Z</time>
      </trkpt>
      <trkpt lat="43.21648" lon="5.40756">
        <ele>202</ele>
        <time>2016-10-27T09:32:27Z</time>
      </trkpt>
      <trkpt lat="43.21638" lon="5.40771">
        <ele>202</ele>
        <time>2016-10-27T09:32:47Z</time>
      </trkpt>
      <trkpt lat="43.21634" lon="5.40824">
        <ele>197</ele>
        <time>2016-10-27T09:33:07Z</time>
      </trkpt>
      <trkpt lat="43.21654" lon="5.40878">
        <ele>187</ele>
        <time>2016-10-27T09:33:27Z</time>
      </trkpt>
      <trkpt lat="43.21638" lon="5.40919">
        <ele>178</ele>
        <time>2016-10-27T09:33:47Z</time>
      </trkpt>
      <trkpt lat="43.21646" lon="5.40949">
        <ele>176</ele>
        <time>2016-10-27T09:34:07Z</time>
      </trkpt>
      <trkpt lat="43.21721" lon="5.41026">
        <ele>186</ele>
        <time>2016-10-27T09:34:27Z</time>
      </trkpt>
      <trkpt lat="43.21734" lon="5.41166">
        <ele>189</ele>
        <time>2016-10-27T09:34:47Z</time>
      </trkpt>
      <trkpt lat="43.2181" lon="5.4126">
        <ele>196</ele>
        <time>2016-10-27T09:35:07Z</time>
      </trkpt>
      <trkpt lat="43.21803" lon="5.41299">
        <ele>192</ele>
        <time>2016-10-27T09:35:27Z</time>
      </trkpt>
      <trkpt lat="43.21785" lon="5.41305">
        <ele>190</ele>
        <time>2016-10-27T09:35:47Z</time>
      </trkpt>
      <trkpt lat="43.2177" lon="5.41348">
        <ele>184</ele>
        <time>2016-10-27T09:36:07Z</time>
      </trkpt>
      <trkpt lat="43.21799" lon="5.41363">
        <ele>188</ele>
        <time>2016-10-27T09:36:27Z</time>
      </trkpt>
      <trkpt lat="43.21826" lon="5.41412">
        <ele>190</ele>
        <time>2016-10-27T09:36:47Z</time>
      </trkpt>
      <trkpt lat="43.21839" lon="5.41472">
        <ele>190</ele>
        <time>2016-10-27T09:37:07Z</time>
      </trkpt>
      <trkpt lat="43.21821" lon="5.4159">
        <ele>175</ele>
        <time>2016-10-27T09:37:27Z</time>
      </trkpt>
      <trkpt lat="43.21784" lon="5.41612">
        <ele>175</ele>
        <time>2016-10-27T09:37:47Z</time>
      </trkpt>
      <trkpt lat="43.21774" lon="5.41627">
        <ele>176</ele>
        <time>2016-10-27T09:38:07Z</time>
      </trkpt>
      <trkpt lat="43.21756" lon="5.41635">
        <ele>178</ele>
        <time>2016-10-27T09:38:27Z</time>
      </trkpt>
      <trkpt lat="43.2174" lon="5.41689">
        <ele>186</ele>
        <time>2016-10-27T09:38:47Z</time>
      </trkpt>
      <trkpt lat="43.21667" lon="5.41768">
        <ele>196</ele>
        <time>2016-10-27T09:39:07Z</time>
      </trkpt>
      <trkpt lat="43.21568" lon="5.41801">
        <ele>183</ele>
        <time>2016-10-27T09:39:27Z</time>
      </trkpt>
      <trkpt lat="43.21563" lon="5.41897">
        <ele>181</ele>
        <time>2016-10-27T09:39:47Z</time>
      </trkpt>
      <trkpt lat="43.21601" lon="5.41959">
        <ele>180</ele>
        <time>2016-10-27T09:40:07Z</time>
      </trkpt>
      <trkpt lat="43.21651" lon="5.41994">
        <ele>180</ele>
        <time>2016-10-27T09:40:27Z</time>
      </trkpt>
      <trkpt lat="43.21654" lon="5.42032">
        <ele>172</ele>
        <time>2016-10-27T09:40:47Z</time>
      </trkpt>
      <trkpt lat="43.21726" lon="5.42146">
        <ele>180</ele>
        <time>2016-10-27T09:41:07Z</time>
      </trkpt>
      <trkpt lat="43.21726" lon="5.42146">
        <ele>180</ele>
        <time>2016-10-27T09:41:27Z</time>
      </trkpt>
      <trkpt lat="43.21721" lon="5.42266">
        <ele>188</ele>
        <time>2016-10-27T09:41:47Z</time>
      </trkpt>
      <trkpt lat="43.21709" lon="5.42301">
        <ele>188</ele>
        <time>2016-10-27T09:42:07Z</time>
      </trkpt>
      <trkpt lat="43.21717" lon="5.42356">
        <ele>201</ele>
        <time>2016-10-27T09:42:27Z</time>
      </trkpt>
      <trkpt lat="43.21701" lon="5.42376">
        <ele>201</ele>
        <time>2016-10-27T09:42:47Z</time>
      </trkpt>
      <trkpt lat="43.2171" lon="5.42485">
        <ele>217</ele>
        <time>2016-10-27T09:43:07Z</time>
      </trkpt>
      <trkpt lat="43.21695" lon="5.42554">
        <ele>224</ele>
        <time>2016-10-27T09:43:27Z</time>
      </trkpt>
      <trkpt lat="43.21738" lon="5.42515">
        <ele>224</ele>
        <time>2016-10-27T09:43:47Z</time>
      </trkpt>
      <trkpt lat="43.21873" lon="5.42374">
        <ele>208</ele>
        <time>2016-10-27T09:44:07Z</time>
      </trkpt>
      <trkpt lat="43.21956" lon="5.42258">
        <ele>207</ele>
        <time>2016-10-27T09:44:27Z</time>
      </trkpt>
      <trkpt lat="43.21989" lon="5.42243">
        <ele>211</ele>
        <time>2016-10-27T09:44:47Z</time>
      </trkpt>
      <trkpt lat="43.22009" lon="5.42223">
        <ele>211</ele>
        <time>2016-10-27T09:45:07Z</time>
      </trkpt>
      <trkpt lat="43.22034" lon="5.42217">
        <ele>211</ele>
        <time>2016-10-27T09:45:27Z</time>
      </trkpt>
      <trkpt lat="43.22053" lon="5.42204">
        <ele>210</ele>
        <time>2016-10-27T09:45:47Z</time>
      </trkpt>
      <trkpt lat="43.22107" lon="5.42183">
        <ele>209</ele>
        <time>2016-10-27T09:46:07Z</time>
      </trkpt>
      <trkpt lat="43.22137" lon="5.42138">
        <ele>208</ele>
        <time>2016-10-27T09:46:27Z</time>
      </trkpt>
      <trkpt lat="43.22156" lon="5.42065">
        <ele>201</ele>
        <time>2016-10-27T09:46:47Z</time>
      </trkpt>
      <trkpt lat="43.22201" lon="5.42052">
        <ele>196</ele>
        <time>2016-10-27T09:47:07Z</time>
      </trkpt>
      <trkpt lat="43.22197" lon="5.42131">
        <ele>203</ele>
        <time>2016-10-27T09:47:27Z</time>
      </trkpt>
      <trkpt lat="43.22223" lon="5.42168">
        <ele>199</ele>
        <time>2016-10-27T09:47:47Z</time>
      </trkpt>
      <trkpt lat="43.22244" lon="5.42288">
        <ele>192</ele>
        <time>2016-10-27T09:48:07Z</time>
      </trkpt>
      <trkpt lat="43.22276" lon="5.4232">
        <ele>191</ele>
        <time>2016-10-27T09:48:27Z</time>
      </trkpt>
      <trkpt lat="43.22286" lon="5.42393">
        <ele>190</ele>
        <time>2016-10-27T09:48:47Z</time>
      </trkpt>
      <trkpt lat="43.22331" lon="5.42449">
        <ele>191</ele>
        <time>2016-10-27T09:49:07Z</time>
      </trkpt>
      <trkpt lat="43.22344" lon="5.42526">
        <ele>206</ele>
        <time>2016-10-27T09:49:27Z</time>
      </trkpt>
      <trkpt lat="43.22326" lon="5.42541">
        <ele>190</ele>
        <time>2016-10-27T09:49:47Z</time>
      </trkpt>
      <trkpt lat="43.22322" lon="5.4259">
        <ele>200</ele>
        <time>2016-10-27T09:50:07Z</time>
      </trkpt>
      <trkpt lat="43.22289" lon="5.42607">
        <ele>199</ele>
        <time>2016-10-27T09:50:27Z</time>
      </trkpt>
      <trkpt lat="43.22275" lon="5.4265">
        <ele>202</ele>
        <time>2016-10-27T09:50:47Z</time>
      </trkpt>
      <trkpt lat="43.22189" lon="5.42663">
        <ele>187</ele>
        <time>2016-10-27T09:51:07Z</time>
      </trkpt>
      <trkpt lat="43.22195" lon="5.42713">
        <ele>194</ele>
        <time>2016-10-27T09:51:27Z</time>
      </trkpt>
      <trkpt lat="43.22212" lon="5.42764">
        <ele>203</ele>
        <time>2016-10-27T09:51:47Z</time>
      </trkpt>
      <trkpt lat="43.22203" lon="5.42798">
        <ele>204</ele>
        <time>2016-10-27T09:52:07Z</time>
      </trkpt>
      <trkpt lat="43.2217" lon="5.42803">
        <ele>201</ele>
        <time>2016-10-27T09:52:27Z</time>
      </trkpt>
      <trkpt lat="43.22109" lon="5.42839">
        <ele>185</ele>
        <time>2016-10-27T09:52:47Z</time>
      </trkpt>
      <trkpt lat="43.22158" lon="5.42949">
        <ele>199</ele>
        <time>2016-10-27T09:53:07Z</time>
      </trkpt>
      <trkpt lat="43.22109" lon="5.42992">
        <ele>185</ele>
        <time>2016-10-27T09:53:27Z</time>
      </trkpt>
      <trkpt lat="43.22131" lon="5.43049">
        <ele>198</ele>
        <time>2016-10-27T09:53:47Z</time>
      </trkpt>
      <trkpt lat="43.22129" lon="5.43088">
        <ele>205</ele>
        <time>2016-10-27T09:54:07Z</time>
      </trkpt>
      <trkpt lat="43.221" lon="5.43107">
        <ele>196</ele>
        <time>2016-10-27T09:54:27Z</time>
      </trkpt>
      <trkpt lat="43.22081" lon="5.43157">
        <ele>181</ele>
        <time>2016-10-27T09:54:47Z</time>
      </trkpt>
      <trkpt lat="43.22092" lon="5.43202">
        <ele>210</ele>
        <time>2016-10-27T09:55:07Z</time>
      </trkpt>
      <trkpt lat="43.22029" lon="5.43251">
        <ele>193</ele>
        <time>2016-10-27T09:55:27Z</time>
      </trkpt>
      <trkpt lat="43.22062" lon="5.4335">
        <ele>217</ele>
        <time>2016-10-27T09:55:47Z</time>
      </trkpt>
      <trkpt lat="43.2204" lon="5.43511">
        <ele>218</ele>
        <time>2016-10-27T09:56:07Z</time>
      </trkpt>
      <trkpt lat="43.22039" lon="5.43562">
        <ele>218</ele>
        <time>2016-10-27T09:56:27Z</time>
      </trkpt>
      <trkpt lat="43.22001" lon="5.43648">
        <ele>217</ele>
        <time>2016-10-27T09:56:47Z</time>
      </trkpt>
      <trkpt lat="43.21976" lon="5.43753">
        <ele>204</ele>
        <time>2016-10-27T09:57:07Z</time>
      </trkpt>
      <trkpt lat="43.21935" lon="5.43809">
        <ele>193</ele>
        <time>2016-10-27T09:57:27Z</time>
      </trkpt>
      <trkpt lat="43.21978" lon="5.43897">
        <ele>190</ele>
        <time>2016-10-27T09:57:47Z</time>
      </trkpt>
      <trkpt lat="43.21986" lon="5.4394">
        <ele>180</ele>
        <time>2016-10-27T09:58:07Z</time>
      </trkpt>
      <trkpt lat="43.22" lon="5.43955">
        <ele>179</ele>
        <time>2016-10-27T09:58:27Z</time>
      </trkpt>
      <trkpt lat="43.21998" lon="5.44">
        <ele>178</ele>
        <time>2016-10-27T09:58:47Z</time>
      </trkpt>
      <trkpt lat="43.22006" lon="5.44039">
        <ele>179</ele>
        <time>2016-10-27T09:59:07Z</time>
      </trkpt>
      <trkpt lat="43.22001" lon="5.44131">
        <ele>180</ele>
        <time>2016-10-27T09:59:27Z</time>
      </trkpt>
      <trkpt lat="43.22018" lon="5.44193">
        <ele>187</ele>
        <time>2016-10-27T09:59:47Z</time>
      </trkpt>
      <trkpt lat="43.22003" lon="5.4426">
        <ele>193</ele>
        <time>2016-10-27T10:00:07Z</time>
      </trkpt>
      <trkpt lat="43.22" lon="5.44308">
        <ele>193</ele>
        <time>2016-10-27T10:00:27Z</time>
      </trkpt>
      <trkpt lat="43.22" lon="5.44308">
        <ele>193</ele>
        <time>2016-10-27T10:00:47Z</time>
      </trkpt>
      <trkpt lat="43.21965" lon="5.44392">
        <ele>201</ele>
        <time>2016-10-27T10:01:07Z</time>
      </trkpt>
      <trkpt lat="43.21934" lon="5.44429">
        <ele>206</ele>
        <time>2016-10-27T10:01:27Z</time>
      </trkpt>
      <trkpt lat="43.21921" lon="5.44498">
        <ele>206</ele>
        <time>2016-10-27T10:01:47Z</time>
      </trkpt>
      <trkpt lat="43.21931" lon="5.44554">
        <ele>212</ele>
        <time>2016-10-27T10:02:07Z</time>
      </trkpt>
      <trkpt lat="43.21892" lon="5.4462">
        <ele>214</ele>
        <time>2016-10-27T10:02:27Z</time>
      </trkpt>
      <trkpt lat="43.21878" lon="5.44693">
        <ele>216</ele>
        <time>2016-10-27T10:02:47Z</time>
      </trkpt>
      <trkpt lat="43.21889" lon="5.44743">
        <ele>217</ele>
        <time>2016-10-27T10:03:07Z</time>
      </trkpt>
      <trkpt lat="43.21878" lon="5.44796">
        <ele>217</ele>
        <time>2016-10-27T10:03:27Z</time>
      </trkpt>
      <trkpt lat="43.21878" lon="5.44845">
        <ele>225</ele>
        <time>2016-10-27T10:03:47Z</time>
      </trkpt>
      <trkpt lat="43.21823" lon="5.44856">
        <ele>208</ele>
        <time>2016-10-27T10:04:07Z</time>
      </trkpt>
      <trkpt lat="43.21809" lon="5.44873">
        <ele>209</ele>
        <time>2016-10-27T10:04:27Z</time>
      </trkpt>
      <trkpt lat="43.21809" lon="5.44912">
        <ele>214</ele>
        <time>2016-10-27T10:04:47Z</time>
      </trkpt>
      <trkpt lat="43.21754" lon="5.4491">
        <ele>209</ele>
        <time>2016-10-27T10:05:07Z</time>
      </trkpt>
      <trkpt lat="43.21687" lon="5.44972">
        <ele>209</ele>
        <time>2016-10-27T10:05:27Z</time>
      </trkpt>
      <trkpt lat="43.21673" lon="5.45024">
        <ele>212</ele>
        <time>2016-10-27T10:05:47Z</time>
      </trkpt>
      <trkpt lat="43.21713" lon="5.45092">
        <ele>223</ele>
        <time>2016-10-27T10:06:07Z</time>
      </trkpt>
      <trkpt lat="43.21718" lon="5.45178">
        <ele>228</ele>
        <time>2016-10-27T10:06:27Z</time>
      </trkpt>
      <trkpt lat="43.21738" lon="5.4527">
        <ele>245</ele>
        <time>2016-10-27T10:06:47Z</time>
      </trkpt>
      <trkpt lat="43.21728" lon="5.45292">
        <ele>249</ele>
        <time>2016-10-27T10:07:07Z</time>
      </trkpt>
      <trkpt lat="43.21681" lon="5.45264">
        <ele>237</ele>
        <time>2016-10-27T10:07:27Z</time>
      </trkpt>
      <trkpt lat="43.21598" lon="5.45195">
        <ele>213</ele>
        <time>2016-10-27T10:07:47Z</time>
      </trkpt>
      <trkpt lat="43.2157" lon="5.45268">
        <ele>232</ele>
        <time>2016-10-27T10:08:07Z</time>
      </trkpt>
      <trkpt lat="43.21548" lon="5.4529">
        <ele>232</ele>
        <time>2016-10-27T10:08:27Z</time>
      </trkpt>
      <trkpt lat="43.21557" lon="5.45318">
        <ele>237</ele>
        <time>2016-10-27T10:08:47Z</time>
      </trkpt>
      <trkpt lat="43.21609" lon="5.45298">
        <ele>244</ele>
        <time>2016-10-27T10:09:07Z</time>
      </trkpt>
      <trkpt lat="43.21581" lon="5.45345">
        <ele>248</ele>
        <time>2016-10-27T10:09:27Z</time>
      </trkpt>
      <trkpt lat="43.21581" lon="5.45395">
        <ele>250</ele>
        <time>2016-10-27T10:09:47Z</time>
      </trkpt>
      <trkpt lat="43.21573" lon="5.45444">
        <ele>253</ele>
        <time>2016-10-27T10:10:07Z</time>
      </trkpt>
      <trkpt lat="43.21601" lon="5.45474">
        <ele>277</ele>
        <time>2016-10-27T10:10:27Z</time>
      </trkpt>
      <trkpt lat="43.21615" lon="5.45461">
        <ele>280</ele>
        <time>2016-10-27T10:10:47Z</time>
      </trkpt>
      <trkpt lat="43.21624" lon="5.45539">
        <ele>291</ele>
        <time>2016-10-27T10:11:07Z</time>
      </trkpt>
      <trkpt lat="43.21648" lon="5.45639">
        <ele>301</ele>
        <time>2016-10-27T10:11:27Z</time>
      </trkpt>
      <trkpt lat="43.21673" lon="5.45697">
        <ele>329</ele>
        <time>2016-10-27T10:11:47Z</time>
      </trkpt>
      <trkpt lat="43.21699" lon="5.4573">
        <ele>332</ele>
        <time>2016-10-27T10:12:07Z</time>
      </trkpt>
      <trkpt lat="43.21723" lon="5.45777">
        <ele>336</ele>
        <time>2016-10-27T10:12:27Z</time>
      </trkpt>
      <trkpt lat="43.21824" lon="5.45781">
        <ele>386</ele>
        <time>2016-10-27T10:12:47Z</time>
      </trkpt>
      <trkpt lat="43.21818" lon="5.458">
        <ele>384</ele>
        <time>2016-10-27T10:13:07Z</time>
      </trkpt>
      <trkpt lat="43.21787" lon="5.45815">
        <ele>377</ele>
        <time>2016-10-27T10:13:27Z</time>
      </trkpt>
      <trkpt lat="43.21796" lon="5.45863">
        <ele>387</ele>
        <time>2016-10-27T10:13:47Z</time>
      </trkpt>
      <trkpt lat="43.21687" lon="5.4589">
        <ele>346</ele>
        <time>2016-10-27T10:14:07Z</time>
      </trkpt>
      <trkpt lat="43.21676" lon="5.45978">
        <ele>363</ele>
        <time>2016-10-27T10:14:27Z</time>
      </trkpt>
      <trkpt lat="43.21706" lon="5.46034">
        <ele>384</ele>
        <time>2016-10-27T10:14:47Z</time>
      </trkpt>
      <trkpt lat="43.21663" lon="5.46062">
        <ele>364</ele>
        <time>2016-10-27T10:15:07Z</time>
      </trkpt>
      <trkpt lat="43.21629" lon="5.46045">
        <ele>357</ele>
        <time>2016-10-27T10:15:27Z</time>
      </trkpt>
      <trkpt lat="43.21598" lon="5.4606">
        <ele>359</ele>
        <time>2016-10-27T10:15:47Z</time>
      </trkpt>
      <trkpt lat="43.2153" lon="5.46043">
        <ele>322</ele>
        <time>2016-10-27T10:16:07Z</time>
      </trkpt>
      <trkpt lat="43.2152" lon="5.46152">
        <ele>362</ele>
        <time>2016-10-27T10:16:27Z</time>
      </trkpt>
      <trkpt lat="43.21444" lon="5.46191">
        <ele>336</ele>
        <time>2016-10-27T10:16:47Z</time>
      </trkpt>
      <trkpt lat="43.21435" lon="5.46249">
        <ele>341</ele>
        <time>2016-10-27T10:17:07Z</time>
      </trkpt>
      <trkpt lat="43.2144" lon="5.46305">
        <ele>358</ele>
        <time>2016-10-27T10:17:27Z</time>
      </trkpt>
      <trkpt lat="43.21469" lon="5.46335">
        <ele>372</ele>
        <time>2016-10-27T10:17:47Z</time>
      </trkpt>
      <trkpt lat="43.21438" lon="5.4641">
        <ele>368</ele>
        <time>2016-10-27T10:18:07Z</time>
      </trkpt>
      <trkpt lat="43.21477" lon="5.46459">
        <ele>389</ele>
        <time>2016-10-27T10:18:27Z</time>
      </trkpt>
      <trkpt lat="43.21408" lon="5.46485">
        <ele>382</ele>
        <time>2016-10-27T10:18:47Z</time>
      </trkpt>
      <trkpt lat="43.21335" lon="5.46423">
        <ele>349</ele>
        <time>2016-10-27T10:19:07Z</time>
      </trkpt>
      <trkpt lat="43.21285" lon="5.4653">
        <ele>378</ele>
        <time>2016-10-27T10:19:27Z</time>
      </trkpt>
      <trkpt lat="43.21362" lon="5.46622">
        <ele>410</ele>
        <time>2016-10-27T10:19:47Z</time>
      </trkpt>
      <trkpt lat="43.21401" lon="5.46609">
        <ele>412</ele>
        <time>2016-10-27T10:20:07Z</time>
      </trkpt>
      <trkpt lat="43.21443" lon="5.46633">
        <ele>413</ele>
        <time>2016-10-27T10:20:27Z</time>
      </trkpt>
      <trkpt lat="43.21466" lon="5.46657">
        <ele>413</ele>
        <time>2016-10-27T10:20:47Z</time>
      </trkpt>
      <trkpt lat="43.2152" lon="5.4665">
        <ele>420</ele>
        <time>2016-10-27T10:21:07Z</time>
      </trkpt>
      <trkpt lat="43.21582" lon="5.46678">
        <ele>422</ele>
        <time>2016-10-27T10:21:27Z</time>
      </trkpt>
      <trkpt lat="43.21571" lon="5.46717">
        <ele>416</ele>
        <time>2016-10-27T10:21:47Z</time>
      </trkpt>
      <trkpt lat="43.21516" lon="5.46762">
        <ele>409</ele>
        <time>2016-10-27T10:22:07Z</time>
      </trkpt>
      <trkpt lat="43.21502" lon="5.46787">
        <ele>414</ele>
        <time>2016-10-27T10:22:27Z</time>
      </trkpt>
      <trkpt lat="43.21454" lon="5.46807">
        <ele>397</ele>
        <time>2016-10-27T10:22:47Z</time>
      </trkpt>
      <trkpt lat="43.2144" lon="5.46843">
        <ele>404</ele>
        <time>2016-10-27T10:23:07Z</time>
      </trkpt>
      <trkpt lat="43.21415" lon="5.46852">
        <ele>390</ele>
        <time>2016-10-27T10:23:27Z</time>
      </trkpt>
      <trkpt lat="43.21385" lon="5.46897">
        <ele>392</ele>
        <time>2016-10-27T10:23:47Z</time>
      </trkpt>
      <trkpt lat="43.21374" lon="5.46948">
        <ele>410</ele>
        <time>2016-10-27T10:24:07Z</time>
      </trkpt>
      <trkpt lat="43.21358" lon="5.46963">
        <ele>412</ele>
        <time>2016-10-27T10:24:27Z</time>
      </trkpt>
      <trkpt lat="43.21351" lon="5.47004">
        <ele>421</ele>
        <time>2016-10-27T10:24:47Z</time>
      </trkpt>
      <trkpt lat="43.21327" lon="5.47017">
        <ele>402</ele>
        <time>2016-10-27T10:25:07Z</time>
      </trkpt>
      <trkpt lat="43.21341" lon="5.47056">
        <ele>413</ele>
        <time>2016-10-27T10:25:27Z</time>
      </trkpt>
      <trkpt lat="43.21337" lon="5.47099">
        <ele>401</ele>
        <time>2016-10-27T10:25:47Z</time>
      </trkpt>
      <trkpt lat="43.21346" lon="5.47122">
        <ele>400</ele>
        <time>2016-10-27T10:26:07Z</time>
      </trkpt>
      <trkpt lat="43.21337" lon="5.47144">
        <ele>391</ele>
        <time>2016-10-27T10:26:27Z</time>
      </trkpt>
      <trkpt lat="43.21274" lon="5.47139">
        <ele>352</ele>
        <time>2016-10-27T10:26:47Z</time>
      </trkpt>
      <trkpt lat="43.21227" lon="5.47156">
        <ele>324</ele>
        <time>2016-10-27T10:27:07Z</time>
      </trkpt>
      <trkpt lat="43.21202" lon="5.47133">
        <ele>318</ele>
        <time>2016-10-27T10:27:27Z</time>
      </trkpt>
      <trkpt lat="43.21163" lon="5.47169">
        <ele>302</ele>
        <time>2016-10-27T10:27:47Z</time>
      </trkpt>
      <trkpt lat="43.21166" lon="5.47219">
        <ele>295</ele>
        <time>2016-10-27T10:28:07Z</time>
      </trkpt>
      <trkpt lat="43.21141" lon="5.47189">
        <ele>292</ele>
        <time>2016-10-27T10:28:27Z</time>
      </trkpt>
      <trkpt lat="43.21121" lon="5.47191">
        <ele>288</ele>
        <time>2016-10-27T10:28:47Z</time>
      </trkpt>
      <trkpt lat="43.21096" lon="5.47144">
        <ele>285</ele>
        <time>2016-10-27T10:29:07Z</time>
      </trkpt>
      <trkpt lat="43.21057" lon="5.47197">
        <ele>278</ele>
        <time>2016-10-27T10:29:27Z</time>
      </trkpt>
      <trkpt lat="43.21028" lon="5.47191">
        <ele>280</ele>
        <time>2016-10-27T10:29:47Z</time>
      </trkpt>
      <trkpt lat="43.2098" lon="5.4727">
        <ele>292</ele>
        <time>2016-10-27T10:30:07Z</time>
      </trkpt>
      <trkpt lat="43.20921" lon="5.47294">
        <ele>298</ele>
        <time>2016-10-27T10:30:27Z</time>
      </trkpt>
      <trkpt lat="43.20889" lon="5.47354">
        <ele>303</ele>
        <time>2016-10-27T10:30:47Z</time>
      </trkpt>
      <trkpt lat="43.20841" lon="5.47401">
        <ele>301</ele>
        <time>2016-10-27T10:31:07Z</time>
      </trkpt>
      <trkpt lat="43.20847" lon="5.47444">
        <ele>298</ele>
        <time>2016-10-27T10:31:27Z</time>
      </trkpt>
      <trkpt lat="43.20811" lon="5.47558">
        <ele>297</ele>
        <time>2016-10-27T10:31:47Z</time>
      </trkpt>
      <trkpt lat="43.20778" lon="5.47588">
        <ele>286</ele>
        <time>2016-10-27T10:32:07Z</time>
      </trkpt>
      <trkpt lat="43.20774" lon="5.47631">
        <ele>280</ele>
        <time>2016-10-27T10:32:27Z</time>
      </trkpt>
      <trkpt lat="43.20741" lon="5.47678">
        <ele>235</ele>
        <time>2016-10-27T10:32:47Z</time>
      </trkpt>
      <trkpt lat="43.20741" lon="5.47699">
        <ele>218</ele>
        <time>2016-10-27T10:33:07Z</time>
      </trkpt>
      <trkpt lat="43.2077" lon="5.47699">
        <ele>253</ele>
        <time>2016-10-27T10:33:27Z</time>
      </trkpt>
      <trkpt lat="43.20769" lon="5.47753">
        <ele>233</ele>
        <time>2016-10-27T10:33:47Z</time>
      </trkpt>
      <trkpt lat="43.20725" lon="5.47839">
        <ele>208</ele>
        <time>2016-10-27T10:34:07Z</time>
      </trkpt>
      <trkpt lat="43.2072" lon="5.4788">
        <ele>209</ele>
        <time>2016-10-27T10:34:27Z</time>
      </trkpt>
      <trkpt lat="43.20753" lon="5.47933">
        <ele>225</ele>
        <time>2016-10-27T10:34:47Z</time>
      </trkpt>
      <trkpt lat="43.20763" lon="5.48015">
        <ele>222</ele>
        <time>2016-10-27T10:35:07Z</time>
      </trkpt>
      <trkpt lat="43.20774" lon="5.48045">
        <ele>218</ele>
        <time>2016-10-27T10:35:27Z</time>
      </trkpt>
      <trkpt lat="43.20792" lon="5.48019">
        <ele>219</ele>
        <time>2016-10-27T10:35:47Z</time>
      </trkpt>
      <trkpt lat="43.20813" lon="5.48062">
        <ele>215</ele>
        <time>2016-10-27T10:36:07Z</time>
      </trkpt>
      <trkpt lat="43.20816" lon="5.48105">
        <ele>207</ele>
        <time>2016-10-27T10:36:27Z</time>
      </trkpt>
      <trkpt lat="43.20844" lon="5.48137">
        <ele>206</ele>
        <time>2016-10-27T10:36:47Z</time>
      </trkpt>
      <trkpt lat="43.20874" lon="5.48167">
        <ele>200</ele>
        <time>2016-10-27T10:37:07Z</time>
      </trkpt>
      <trkpt lat="43.20911" lon="5.48238">
        <ele>198</ele>
        <time>2016-10-27T10:37:27Z</time>
      </trkpt>
      <trkpt lat="43.20936" lon="5.48236">
        <ele>205</ele>
        <time>2016-10-27T10:37:47Z</time>
      </trkpt>
      <trkpt lat="43.20969" lon="5.48159">
        <ele>217</ele>
        <time>2016-10-27T10:38:07Z</time>
      </trkpt>
      <trkpt lat="43.20989" lon="5.48116">
        <ele>220</ele>
        <time>2016-10-27T10:38:27Z</time>
      </trkpt>
      <trkpt lat="43.21011" lon="5.48174">
        <ele>219</ele>
        <time>2016-10-27T10:38:47Z</time>
      </trkpt>
      <trkpt lat="43.21025" lon="5.48296">
        <ele>222</ele>
        <time>2016-10-27T10:39:07Z</time>
      </trkpt>
      <trkpt lat="43.21024" lon="5.48377">
        <ele>221</ele>
        <time>2016-10-27T10:39:27Z</time>
      </trkpt>
      <trkpt lat="43.21041" lon="5.48433">
        <ele>219</ele>
        <time>2016-10-27T10:39:47Z</time>
      </trkpt>
      <trkpt lat="43.21036" lon="5.4848">
        <ele>217</ele>
        <time>2016-10-27T10:40:07Z</time>
      </trkpt>
      <trkpt lat="43.21025" lon="5.4853">
        <ele>210</ele>
        <time>2016-10-27T10:40:27Z</time>
      </trkpt>
      <trkpt lat="43.20994" lon="5.48556">
        <ele>197</ele>
        <time>2016-10-27T10:40:47Z</time>
      </trkpt>
      <trkpt lat="43.20961" lon="5.48661">
        <ele>184</ele>
        <time>2016-10-27T10:41:07Z</time>
      </trkpt>
      <trkpt lat="43.20955" lon="5.48744">
        <ele>175</ele>
        <time>2016-10-27T10:41:27Z</time>
      </trkpt>
      <trkpt lat="43.20944" lon="5.48869">
        <ele>155</ele>
        <time>2016-10-27T10:41:47Z</time>
      </trkpt>
      <trkpt lat="43.20993" lon="5.48809">
        <ele>162</ele>
        <time>2016-10-27T10:42:07Z</time>
      </trkpt>
      <trkpt lat="43.21041" lon="5.48768">
        <ele>159</ele>
        <time>2016-10-27T10:42:27Z</time>
      </trkpt>
      <trkpt lat="43.21066" lon="5.48794">
        <ele>156</ele>
        <time>2016-10-27T10:42:47Z</time>
      </trkpt>
      <trkpt lat="43.21097" lon="5.48774">
        <ele>160</ele>
        <time>2016-10-27T10:43:07Z</time>
      </trkpt>
      <trkpt lat="43.2111" lon="5.48792">
        <ele>162</ele>
        <time>2016-10-27T10:43:27Z</time>
      </trkpt>
      <trkpt lat="43.21075" lon="5.48826">
        <ele>154</ele>
        <time>2016-10-27T10:43:47Z</time>
      </trkpt>
      <trkpt lat="43.21046" lon="5.48867">
        <ele>151</ele>
        <time>2016-10-27T10:44:07Z</time>
      </trkpt>
      <trkpt lat="43.21071" lon="5.48886">
        <ele>154</ele>
        <time>2016-10-27T10:44:27Z</time>
      </trkpt>
      <trkpt lat="43.21077" lon="5.48929">
        <ele>159</ele>
        <time>2016-10-27T10:44:47Z</time>
      </trkpt>
      <trkpt lat="43.21061" lon="5.48985">
        <ele>159</ele>
        <time>2016-10-27T10:45:07Z</time>
      </trkpt>
      <trkpt lat="43.21028" lon="5.49028">
        <ele>158</ele>
        <time>2016-10-27T10:45:27Z</time>
      </trkpt>
      <trkpt lat="43.21018" lon="5.49113">
        <ele>164</ele>
        <time>2016-10-27T10:45:47Z</time>
      </trkpt>
      <trkpt lat="43.21138" lon="5.49105">
        <ele>172</ele>
        <time>2016-10-27T10:46:07Z</time>
      </trkpt>
      <trkpt lat="43.21141" lon="5.49118">
        <ele>171</ele>
        <time>2016-10-27T10:46:27Z</time>
      </trkpt>
      <trkpt lat="43.21063" lon="5.49214">
        <ele>162</ele>
        <time>2016-10-27T10:46:47Z</time>
      </trkpt>
      <trkpt lat="43.211" lon="5.49384">
        <ele>148</ele>
        <time>2016-10-27T10:47:07Z</time>
      </trkpt>
      <trkpt lat="43.21122" lon="5.49425">
        <ele>143</ele>
        <time>2016-10-27T10:47:27Z</time>
      </trkpt>
      <trkpt lat="43.21125" lon="5.49485">
        <ele>141</ele>
        <time>2016-10-27T10:47:47Z</time>
      </trkpt>
      <trkpt lat="43.21114" lon="5.49521">
        <ele>129</ele>
        <time>2016-10-27T10:48:07Z</time>
      </trkpt>
      <trkpt lat="43.21118" lon="5.4954">
        <ele>127</ele>
        <time>2016-10-27T10:48:27Z</time>
      </trkpt>
      <trkpt lat="43.21154" lon="5.49601">
        <ele>109</ele>
        <time>2016-10-27T10:48:47Z</time>
      </trkpt>
      <trkpt lat="43.21129" lon="5.49628">
        <ele>104</ele>
        <time>2016-10-27T10:49:07Z</time>
      </trkpt>
      <trkpt lat="43.21158" lon="5.49667">
        <ele>93</ele>
        <time>2016-10-27T10:49:27Z</time>
      </trkpt>
      <trkpt lat="43.21144" lon="5.4971">
        <ele>92</ele>
        <time>2016-10-27T10:49:47Z</time>
      </trkpt>
      <trkpt lat="43.21105" lon="5.49723">
        <ele>95</ele>
        <time>2016-10-27T10:50:07Z</time>
      </trkpt>
      <trkpt lat="43.21088" lon="5.49693">
        <ele>94</ele>
        <time>2016-10-27T10:50:27Z</time>
      </trkpt>
      <trkpt lat="43.21032" lon="5.49667">
        <ele>102</ele>
        <time>2016-10-27T10:50:47Z</time>
      </trkpt>
      <trkpt lat="43.20999" lon="5.49693">
        <ele>104</ele>
        <time>2016-10-27T10:51:07Z</time>
      </trkpt>
      <trkpt lat="43.20933" lon="5.49699">
        <ele>102</ele>
        <time>2016-10-27T10:51:27Z</time>
      </trkpt>
      <trkpt lat="43.20838" lon="5.49734">
        <ele>83</ele>
        <time>2016-10-27T10:51:47Z</time>
      </trkpt>
      <trkpt lat="43.20719" lon="5.49843">
        <ele>70</ele>
        <time>2016-10-27T10:52:07Z</time>
      </trkpt>
      <trkpt lat="43.20688" lon="5.49858">
        <ele>64</ele>
        <time>2016-10-27T10:52:27Z</time>
      </trkpt>
      <trkpt lat="43.20666" lon="5.49894">
        <ele>59</ele>
        <time>2016-10-27T10:52:47Z</time>
      </trkpt>
      <trkpt lat="43.20637" lon="5.49914">
        <ele>61</ele>
        <time>2016-10-27T10:53:07Z</time>
      </trkpt>
      <trkpt lat="43.20614" lon="5.49907">
        <ele>65</ele>
        <time>2016-10-27T10:53:27Z</time>
      </trkpt>
      <trkpt lat="43.20634" lon="5.49957">
        <ele>75</ele>
        <time>2016-10-27T10:53:47Z</time>
      </trkpt>
      <trkpt lat="43.20636" lon="5.50008">
        <ele>93</ele>
        <time>2016-10-27T10:54:07Z</time>
      </trkpt>
      <trkpt lat="43.2065" lon="5.50015">
        <ele>91</ele>
        <time>2016-10-27T10:54:27Z</time>
      </trkpt>
      <trkpt lat="43.20681" lon="5.50068">
        <ele>103</ele>
        <time>2016-10-27T10:54:47Z</time>
      </trkpt>
      <trkpt lat="43.20669" lon="5.50081">
        <ele>101</ele>
        <time>2016-10-27T10:55:07Z</time>
      </trkpt>
      <trkpt lat="43.20684" lon="5.50098">
        <ele>114</ele>
        <time>2016-10-27T10:55:27Z</time>
      </trkpt>
      <trkpt lat="43.20669" lon="5.50116">
        <ele>117</ele>
        <time>2016-10-27T10:55:47Z</time>
      </trkpt>
      <trkpt lat="43.20673" lon="5.50137">
        <ele>122</ele>
        <time>2016-10-27T10:56:07Z</time>
      </trkpt>
      <trkpt lat="43.20648" lon="5.50152">
        <ele>124</ele>
        <time>2016-10-27T10:56:27Z</time>
      </trkpt>
      <trkpt lat="43.20625" lon="5.5021">
        <ele>134</ele>
        <time>2016-10-27T10:56:47Z</time>
      </trkpt>
      <trkpt lat="43.20625" lon="5.50238">
        <ele>134</ele>
        <time>2016-10-27T10:57:07Z</time>
      </trkpt>
      <trkpt lat="43.20592" lon="5.50294">
        <ele>128</ele>
        <time>2016-10-27T10:57:27Z</time>
      </trkpt>
      <trkpt lat="43.20578" lon="5.50394">
        <ele>113</ele>
        <time>2016-10-27T10:57:47Z</time>
      </trkpt>
      <trkpt lat="43.20548" lon="5.50467">
        <ele>103</ele>
        <time>2016-10-27T10:58:07Z</time>
      </trkpt>
      <trkpt lat="43.20508" lon="5.50517">
        <ele>94</ele>
        <time>2016-10-27T10:58:27Z</time>
      </trkpt>
      <trkpt lat="43.20508" lon="5.50551">
        <ele>90</ele>
        <time>2016-10-27T10:58:47Z</time>
      </trkpt>
      <trkpt lat="43.2048" lon="5.50605">
        <ele>82</ele>
        <time>2016-10-27T10:59:07Z</time>
      </trkpt>
      <trkpt lat="43.20444" lon="5.50699">
        <ele>68</ele>
        <time>2016-10-27T10:59:27Z</time>
      </trkpt>
      <trkpt lat="43.20439" lon="5.50802">
        <ele>50</ele>
        <time>2016-10-27T10:59:47Z</time>
      </trkpt>
      <trkpt lat="43.20408" lon="5.50905">
        <ele>36</ele>
        <time>2016-10-27T11:00:07Z</time>
      </trkpt>
      <trkpt lat="43.2042" lon="5.51">
        <ele>20</ele>
        <time>2016-10-27T11:00:27Z</time>
      </trkpt>
      <trkpt lat="43.20406" lon="5.51077">
        <ele>15</ele>
        <time>2016-10-27T11:00:47Z</time>
      </trkpt>
      <trkpt lat="43.20434" lon="5.51148">
        <ele>24</ele>
        <time>2016-10-27T11:01:07Z</time>
      </trkpt>
      <trkpt lat="43.20431" lon="5.5118">
        <ele>26</ele>
        <time>2016-10-27T11:01:27Z</time>
      </trkpt>
      <trkpt lat="43.20492" lon="5.51199">
        <ele>29</ele>
        <time>2016-10-27T11:01:47Z</time>
      </trkpt>
      <trkpt lat="43.2053" lon="5.51139">
        <ele>35</ele>
        <time>2016-10-27T11:02:07Z</time>
      </trkpt>
      <trkpt lat="43.20541" lon="5.51176">
        <ele>40</ele>
        <time>2016-10-27T11:02:27Z</time>
      </trkpt>
      <trkpt lat="43.20558" lon="5.51186">
        <ele>41</ele>
        <time>2016-10-27T11:02:47Z</time>
      </trkpt>
      <trkpt lat="43.20591" lon="5.5124">
        <ele>48</ele>
        <time>2016-10-27T11:03:07Z</time>
      </trkpt>
      <trkpt lat="43.20603" lon="5.51302">
        <ele>47</ele>
        <time>2016-10-27T11:03:27Z</time>
      </trkpt>
      <trkpt lat="43.20576" lon="5.51358">
        <ele>29</ele>
        <time>2016-10-27T11:03:47Z</time>
      </trkpt>
      <trkpt lat="43.20597" lon="5.51407">
        <ele>32</ele>
        <time>2016-10-27T11:04:07Z</time>
      </trkpt>
      <trkpt lat="43.20645" lon="5.51454">
        <ele>24</ele>
        <time>2016-10-27T11:04:27Z</time>
      </trkpt>
      <trkpt lat="43.20728" lon="5.51487">
        <ele>30</ele>
        <time>2016-10-27T11:04:47Z</time>
      </trkpt>
      <trkpt lat="43.20903" lon="5.51701">
        <ele>22</ele>
        <time>2016-10-27T11:05:07Z</time>
      </trkpt>
      <trkpt lat="43.2091" lon="5.51809">
        <ele>9</ele>
        <time>2016-10-27T11:05:27Z</time>
      </trkpt>
      <trkpt lat="43.20938" lon="5.51845">
        <ele>13</ele>
        <time>2016-10-27T11:05:47Z</time>
      </trkpt>
      <trkpt lat="43.20983" lon="5.51933">
        <ele>14</ele>
        <time>2016-10-27T11:06:07Z</time>
      </trkpt>
      <trkpt lat="43.21044" lon="5.51997">
        <ele>23</ele>
        <time>2016-10-27T11:06:27Z</time>
      </trkpt>
      <trkpt lat="43.21138" lon="5.52079">
        <ele>28</ele>
        <time>2016-10-27T11:06:47Z</time>
      </trkpt>
      <trkpt lat="43.21186" lon="5.5215">
        <ele>32</ele>
        <time>2016-10-27T11:07:07Z</time>
      </trkpt>
      <trkpt lat="43.21206" lon="5.52215">
        <ele>29</ele>
        <time>2016-10-27T11:07:27Z</time>
      </trkpt>
      <trkpt lat="43.21206" lon="5.52215">
        <ele>29</ele>
        <time>2016-10-27T11:07:47Z</time>
      </trkpt>
      <trkpt lat="43.21148" lon="5.52206">
        <ele>26</ele>
        <time>2016-10-27T11:08:07Z</time>
      </trkpt>
      <trkpt lat="43.21144" lon="5.52363">
        <ele>51</ele>
        <time>2016-10-27T11:08:27Z</time>
      </trkpt>
      <trkpt lat="43.21256" lon="5.52711">
        <ele>50</ele>
        <time>2016-10-27T11:08:47Z</time>
      </trkpt>
      <trkpt lat="43.21275" lon="5.52854">
        <ele>36</ele>
        <time>2016-10-27T11:09:07Z</time>
      </trkpt>
      <trkpt lat="43.21259" lon="5.52878">
        <ele>35</ele>
        <time>2016-10-27T11:09:27Z</time>
      </trkpt>
      <trkpt lat="43.21242" lon="5.5288">
        <ele>39</ele>
        <time>2016-10-27T11:09:47Z</time>
      </trkpt>
      <trkpt lat="43.21206" lon="5.5285">
        <ele>39</ele>
        <time>2016-10-27T11:10:07Z</time>
      </trkpt>
      <trkpt lat="43.21216" lon="5.52897">
        <ele>36</ele>
        <time>2016-10-27T11:10:27Z</time>
      </trkpt>
      <trkpt lat="43.21225" lon="5.53075">
        <ele>14</ele>
        <time>2016-10-27T11:10:47Z</time>
      </trkpt>
      <trkpt lat="43.2128" lon="5.53058">
        <ele>17</ele>
        <time>2016-10-27T11:11:07Z</time>
      </trkpt>
      <trkpt lat="43.21328" lon="5.5311">
        <ele>15</ele>
        <time>2016-10-27T11:11:27Z</time>
      </trkpt>
      <trkpt lat="43.21344" lon="5.53178">
        <ele>19</ele>
        <time>2016-10-27T11:11:47Z</time>
      </trkpt>
      <trkpt lat="43.21369" lon="5.53211">
        <ele>23</ele>
        <time>2016-10-27T11:12:07Z</time>
      </trkpt>
      <trkpt lat="43.214" lon="5.53303">
        <ele>20</ele>
        <time>2016-10-27T11:12:27Z</time>
      </trkpt>
      <trkpt lat="43.21458" lon="5.53324">
        <ele>31</ele>
        <time>2016-10-27T11:12:47Z</time>
      </trkpt>
      <trkpt lat="43.21466" lon="5.5335">
        <ele>27</ele>
        <time>2016-10-27T11:13:07Z</time>
      </trkpt>
      <trkpt lat="43.21422" lon="5.53395">
        <ele>21</ele>
        <time>2016-10-27T11:13:27Z</time>
      </trkpt>
      <trkpt lat="43.21435" lon="5.53464">
        <ele>16</ele>
        <time>2016-10-27T11:13:47Z</time>
      </trkpt>
      <trkpt lat="43.21477" lon="5.53545">
        <ele>12</ele>
        <time>2016-10-27T11:14:07Z</time>
      </trkpt>
      <trkpt lat="43.2145" lon="5.53571">
        <ele>9</ele>
        <time>2016-10-27T11:14:27Z</time>
      </trkpt>
      <trkpt lat="43.21486" lon="5.53706">
        <ele>8</ele>
        <time>2016-10-27T11:14:47Z</time>
      </trkpt>
      <trkpt lat="43.21471" lon="5.53741">
        <ele>7</ele>
        <time>2016-10-27T11:15:07Z</time>
      </trkpt>
      <trkpt lat="43.21442" lon="5.53762">
        <ele>7</ele>
        <time>2016-10-27T11:15:27Z</time>
      </trkpt>
      <trkpt lat="43.21374" lon="5.5388">
        <ele>8</ele>
        <time>2016-10-27T11:15:47Z</time>
      </trkpt>
      <trkpt lat="43.21367" lon="5.54127">
        <ele>19</ele>
        <time>2016-10-27T11:16:07Z</time>
      </trkpt>
      <trkpt lat="43.21256" lon="5.54273">
        <ele>26</ele>
        <time>2016-10-27T11:16:27Z</time>
      </trkpt>
      <trkpt lat="43.2117" lon="5.54492">
        <ele>24</ele>
        <time>2016-10-27T11:16:47Z</time>
      </trkpt>
      <trkpt lat="43.21116" lon="5.54543">
        <ele>24</ele>
        <time>2016-10-27T11:17:07Z</time>
      </trkpt>
      <trkpt lat="43.21117" lon="5.54586">
        <ele>30</ele>
        <time>2016-10-27T11:17:27Z</time>
      </trkpt>
      <trkpt lat="43.211" lon="5.54691">
        <ele>32</ele>
        <time>2016-10-27T11:17:47Z</time>
      </trkpt>
      <trkpt lat="43.2099" lon="5.54865">
        <ele>32</ele>
        <time>2016-10-27T11:18:07Z</time>
      </trkpt>
      <trkpt lat="43.20962" lon="5.54955">
        <ele>40</ele>
        <time>2016-10-27T11:18:27Z</time>
      </trkpt>
      <trkpt lat="43.20922" lon="5.55052">
        <ele>50</ele>
        <time>2016-10-27T11:18:47Z</time>
      </trkpt>
      <trkpt lat="43.20914" lon="5.55425">
        <ele>92</ele>
        <time>2016-10-27T11:19:07Z</time>
      </trkpt>
      <trkpt lat="43.20922" lon="5.55592">
        <ele>120</ele>
        <time>2016-10-27T11:19:27Z</time>
      </trkpt>
      <trkpt lat="43.20945" lon="5.55625">
        <ele>127</ele>
        <time>2016-10-27T11:19:47Z</time>
      </trkpt>
      <trkpt lat="43.20939" lon="5.5564">
        <ele>129</ele>
        <time>2016-10-27T11:20:07Z</time>
      </trkpt>
      <trkpt lat="43.2095" lon="5.55659">
        <ele>131</ele>
        <time>2016-10-27T11:20:27Z</time>
      </trkpt>
      <trkpt lat="43.20873" lon="5.55693">
        <ele>143</ele>
        <time>2016-10-27T11:20:47Z</time>
      </trkpt>
      <trkpt lat="43.2087" lon="5.55743">
        <ele>149</ele>
        <time>2016-10-27T11:21:07Z</time>
      </trkpt>
      <trkpt lat="43.20822" lon="5.55805">
        <ele>161</ele>
        <time>2016-10-27T11:21:27Z</time>
      </trkpt>
      <trkpt lat="43.20784" lon="5.55891">
        <ele>182</ele>
        <time>2016-10-27T11:21:47Z</time>
      </trkpt>
      <trkpt lat="43.20775" lon="5.55974">
        <ele>207</ele>
        <time>2016-10-27T11:22:07Z</time>
      </trkpt>
      <trkpt lat="43.20748" lon="5.56022">
        <ele>216</ele>
        <time>2016-10-27T11:22:27Z</time>
      </trkpt>
      <trkpt lat="43.20745" lon="5.56116">
        <ele>225</ele>
        <time>2016-10-27T11:22:47Z</time>
      </trkpt>
      <trkpt lat="43.20768" lon="5.56144">
        <ele>228</ele>
        <time>2016-10-27T11:23:07Z</time>
      </trkpt>
      <trkpt lat="43.20801" lon="5.56243">
        <ele>230</ele>
        <time>2016-10-27T11:23:27Z</time>
      </trkpt>
      <trkpt lat="43.20829" lon="5.56286">
        <ele>228</ele>
        <time>2016-10-27T11:23:47Z</time>
      </trkpt>
      <trkpt lat="43.20856" lon="5.56416">
        <ele>240</ele>
        <time>2016-10-27T11:24:07Z</time>
      </trkpt>
      <trkpt lat="43.20951" lon="5.56474">
        <ele>256</ele>
        <time>2016-10-27T11:24:27Z</time>
      </trkpt>
      <trkpt lat="43.20976" lon="5.56522">
        <ele>248</ele>
        <time>2016-10-27T11:24:47Z</time>
      </trkpt>
      <trkpt lat="43.20994" lon="5.56646">
        <ele>237</ele>
        <time>2016-10-27T11:25:07Z</time>
      </trkpt>
      <trkpt lat="43.21009" lon="5.56502">
        <ele>262</ele>
        <time>2016-10-27T11:25:27Z</time>
      </trkpt>
      <trkpt lat="43.21042" lon="5.56459">
        <ele>277</ele>
        <time>2016-10-27T11:25:47Z</time>
      </trkpt>
      <trkpt lat="43.21106" lon="5.5647">
        <ele>276</ele>
        <time>2016-10-27T11:26:07Z</time>
      </trkpt>
      <trkpt lat="43.21131" lon="5.56324">
        <ele>297</ele>
        <time>2016-10-27T11:26:27Z</time>
      </trkpt>
      <trkpt lat="43.21101" lon="5.56271">
        <ele>305</ele>
        <time>2016-10-27T11:26:47Z</time>
      </trkpt>
      <trkpt lat="43.21103" lon="5.56238">
        <ele>309</ele>
        <time>2016-10-27T11:27:07Z</time>
      </trkpt>
      <trkpt lat="43.2113" lon="5.56183">
        <ele>306</ele>
        <time>2016-10-27T11:27:27Z</time>
      </trkpt>
      <trkpt lat="43.21169" lon="5.56161">
        <ele>297</ele>
        <time>2016-10-27T11:27:47Z</time>
      </trkpt>
      <trkpt lat="43.21272" lon="5.56206">
        <ele>291</ele>
        <time>2016-10-27T11:28:07Z</time>
      </trkpt>
      <trkpt lat="43.21322" lon="5.56256">
        <ele>294</ele>
        <time>2016-10-27T11:28:27Z</time>
      </trkpt>
      <trkpt lat="43.21342" lon="5.56322">
        <ele>292</ele>
        <time>2016-10-27T11:28:47Z</time>
      </trkpt>
      <trkpt lat="43.21349" lon="5.56391">
        <ele>296</ele>
        <time>2016-10-27T11:29:07Z</time>
      </trkpt>
      <trkpt lat="43.21372" lon="5.56442">
        <ele>300</ele>
        <time>2016-10-27T11:29:27Z</time>
      </trkpt>
      <trkpt lat="43.21419" lon="5.56464">
        <ele>288</ele>
        <time>2016-10-27T11:29:47Z</time>
      </trkpt>
      <trkpt lat="43.21453" lon="5.56592">
        <ele>299</ele>
        <time>2016-10-27T11:30:07Z</time>
      </trkpt>
      <trkpt lat="43.21464" lon="5.56723">
        <ele>301</ele>
        <time>2016-10-27T11:30:27Z</time>
      </trkpt>
      <trkpt lat="43.21519" lon="5.56781">
        <ele>293</ele>
        <time>2016-10-27T11:30:47Z</time>
      </trkpt>
      <trkpt lat="43.21577" lon="5.56865">
        <ele>294</ele>
        <time>2016-10-27T11:31:07Z</time>
      </trkpt>
      <trkpt lat="43.21597" lon="5.56931">
        <ele>285</ele>
        <time>2016-10-27T11:31:27Z</time>
      </trkpt>
      <trkpt lat="43.21616" lon="5.56961">
        <ele>278</ele>
        <time>2016-10-27T11:31:47Z</time>
      </trkpt>
      <trkpt lat="43.21627" lon="5.56996">
        <ele>277</ele>
        <time>2016-10-27T11:32:07Z</time>
      </trkpt>
      <trkpt lat="43.21708" lon="5.57064">
        <ele>248</ele>
        <time>2016-10-27T11:32:27Z</time>
      </trkpt>
      <trkpt lat="43.21743" lon="5.57073">
        <ele>244</ele>
        <time>2016-10-27T11:32:47Z</time>
      </trkpt>
      <trkpt lat="43.21783" lon="5.57114">
        <ele>250</ele>
        <time>2016-10-27T11:33:07Z</time>
      </trkpt>
      <trkpt lat="43.21788" lon="5.57189">
        <ele>258</ele>
        <time>2016-10-27T11:33:27Z</time>
      </trkpt>
      <trkpt lat="43.21771" lon="5.57255">
        <ele>256</ele>
        <time>2016-10-27T11:33:47Z</time>
      </trkpt>
      <trkpt lat="43.21771" lon="5.57305">
        <ele>259</ele>
        <time>2016-10-27T11:34:07Z</time>
      </trkpt>
      <trkpt lat="43.21827" lon="5.57303">
        <ele>269</ele>
        <time>2016-10-27T11:34:27Z</time>
      </trkpt>
      <trkpt lat="43.21858" lon="5.57245">
        <ele>286</ele>
        <time>2016-10-27T11:34:47Z</time>
      </trkpt>
      <trkpt lat="43.21877" lon="5.57215">
        <ele>289</ele>
        <time>2016-10-27T11:35:07Z</time>
      </trkpt>
      <trkpt lat="43.21885" lon="5.57152">
        <ele>276</ele>
        <time>2016-10-27T11:35:27Z</time>
      </trkpt>
      <trkpt lat="43.21913" lon="5.57159">
        <ele>289</ele>
        <time>2016-10-27T11:35:47Z</time>
      </trkpt>
      <trkpt lat="43.21946" lon="5.57148">
        <ele>280</ele>
        <time>2016-10-27T11:36:07Z</time>
      </trkpt>
      <trkpt lat="43.21993" lon="5.57174">
        <ele>296</ele>
        <time>2016-10-27T11:36:27Z</time>
      </trkpt>
      <trkpt lat="43.22032" lon="5.57213">
        <ele>284</ele>
        <time>2016-10-27T11:36:47Z</time>
      </trkpt>
      <trkpt lat="43.22055" lon="5.57294">
        <ele>292</ele>
        <time>2016-10-27T11:37:07Z</time>
      </trkpt>
      <trkpt lat="43.22012" lon="5.57558">
        <ele>273</ele>
        <time>2016-10-27T11:37:27Z</time>
      </trkpt>
      <trkpt lat="43.22055" lon="5.57637">
        <ele>259</ele>
        <time>2016-10-27T11:37:47Z</time>
      </trkpt>
      <trkpt lat="43.22044" lon="5.57717">
        <ele>249</ele>
        <time>2016-10-27T11:38:07Z</time>
      </trkpt>
      <trkpt lat="43.22073" lon="5.57734">
        <ele>245</ele>
        <time>2016-10-27T11:38:27Z</time>
      </trkpt>
      <trkpt lat="43.22152" lon="5.57753">
        <ele>223</ele>
        <time>2016-10-27T11:38:47Z</time>
      </trkpt>
      <trkpt lat="43.22231" lon="5.57854">
        <ele>208</ele>
        <time>2016-10-27T11:39:07Z</time>
      </trkpt>
      <trkpt lat="43.22207" lon="5.57878">
        <ele>211</ele>
        <time>2016-10-27T11:39:27Z</time>
      </trkpt>
      <trkpt lat="43.22202" lon="5.57931">
        <ele>209</ele>
        <time>2016-10-27T11:39:47Z</time>
      </trkpt>
      <trkpt lat="43.22223" lon="5.57951">
        <ele>207</ele>
        <time>2016-10-27T11:40:07Z</time>
      </trkpt>
      <trkpt lat="43.22223" lon="5.58002">
        <ele>207</ele>
        <time>2016-10-27T11:40:27Z</time>
      </trkpt>
      <trkpt lat="43.22352" lon="5.58105">
        <ele>217</ele>
        <time>2016-10-27T11:40:47Z</time>
      </trkpt>
      <trkpt lat="43.22398" lon="5.58296">
        <ele>224</ele>
        <time>2016-10-27T11:41:07Z</time>
      </trkpt>
      <trkpt lat="43.22443" lon="5.58326">
        <ele>222</ele>
        <time>2016-10-27T11:41:27Z</time>
      </trkpt>
      <trkpt lat="43.22539" lon="5.5832">
        <ele>227</ele>
        <time>2016-10-27T11:41:47Z</time>
      </trkpt>
      <trkpt lat="43.22596" lon="5.58373">
        <ele>234</ele>
        <time>2016-10-27T11:42:07Z</time>
      </trkpt>
      <trkpt lat="43.22628" lon="5.58543">
        <ele>246</ele>
        <time>2016-10-27T11:42:27Z</time>
      </trkpt>
      <trkpt lat="43.22668" lon="5.58551">
        <ele>247</ele>
        <time>2016-10-27T11:42:47Z</time>
      </trkpt>
      <trkpt lat="43.22746" lon="5.58343">
        <ele>246</ele>
        <time>2016-10-27T11:43:07Z</time>
      </trkpt>
      <trkpt lat="43.22825" lon="5.58403">
        <ele>256</ele>
        <time>2016-10-27T11:43:27Z</time>
      </trkpt>
      <trkpt lat="43.22853" lon="5.58448">
        <ele>262</ele>
        <time>2016-10-27T11:43:47Z</time>
      </trkpt>
      <trkpt lat="43.229" lon="5.58464">
        <ele>263</ele>
        <time>2016-10-27T11:44:07Z</time>
      </trkpt>
      <trkpt lat="43.22978" lon="5.58562">
        <ele>274</ele>
        <time>2016-10-27T11:44:27Z</time>
      </trkpt>
      <trkpt lat="43.23061" lon="5.58627">
        <ele>283</ele>
        <time>2016-10-27T11:44:47Z</time>
      </trkpt>
      <trkpt lat="43.23086" lon="5.5868">
        <ele>293</ele>
        <time>2016-10-27T11:45:07Z</time>
      </trkpt>
      <trkpt lat="43.2312" lon="5.58742">
        <ele>301</ele>
        <time>2016-10-27T11:45:27Z</time>
      </trkpt>
      <trkpt lat="43.23181" lon="5.58794">
        <ele>319</ele>
        <time>2016-10-27T11:45:47Z</time>
      </trkpt>
      <trkpt lat="43.23212" lon="5.588">
        <ele>321</ele>
        <time>2016-10-27T11:46:07Z</time>
      </trkpt>
      <trkpt lat="43.23259" lon="5.58773">
        <ele>315</ele>
        <time>2016-10-27T11:46:27Z</time>
      </trkpt>
      <trkpt lat="43.23287" lon="5.58833">
        <ele>322</ele>
        <time>2016-10-27T11:46:47Z</time>
      </trkpt>
      <trkpt lat="43.23353" lon="5.5883">
        <ele>316</ele>
        <time>2016-10-27T11:47:07Z</time>
      </trkpt>
      <trkpt lat="43.23447" lon="5.58957">
        <ele>341</ele>
        <time>2016-10-27T11:47:27Z</time>
      </trkpt>
      <trkpt lat="43.2348" lon="5.58963">
        <ele>340</ele>
        <time>2016-10-27T11:47:47Z</time>
      </trkpt>
      <trkpt lat="43.23527" lon="5.59013">
        <ele>336</ele>
        <time>2016-10-27T11:48:07Z</time>
      </trkpt>
      <trkpt lat="43.23583" lon="5.59208">
        <ele>354</ele>
        <time>2016-10-27T11:48:27Z</time>
      </trkpt>
      <trkpt lat="43.23633" lon="5.59303">
        <ele>373</ele>
        <time>2016-10-27T11:48:47Z</time>
      </trkpt>
      <trkpt lat="43.23639" lon="5.59401">
        <ele>379</ele>
        <time>2016-10-27T11:49:07Z</time>
      </trkpt>
      <trkpt lat="43.23619" lon="5.59562">
        <ele>384</ele>
        <time>2016-10-27T11:49:27Z</time>
      </trkpt>
      <trkpt lat="43.23611" lon="5.59717">
        <ele>385</ele>
        <time>2016-10-27T11:49:47Z</time>
      </trkpt>
      <trkpt lat="43.23627" lon="5.59815">
        <ele>387</ele>
        <time>2016-10-27T11:50:07Z</time>
      </trkpt>
      <trkpt lat="43.23681" lon="5.59878">
        <ele>395</ele>
        <time>2016-10-27T11:50:27Z</time>
      </trkpt>
      <trkpt lat="43.23703" lon="5.59991">
        <ele>401</ele>
        <time>2016-10-27T11:50:47Z</time>
      </trkpt>
      <trkpt lat="43.23744" lon="5.60088">
        <ele>412</ele>
        <time>2016-10-27T11:51:07Z</time>
      </trkpt>
      <trkpt lat="43.23739" lon="5.6015">
        <ele>411</ele>
        <time>2016-10-27T11:51:27Z</time>
      </trkpt>
      <trkpt lat="43.23667" lon="5.60279">
        <ele>410</ele>
        <time>2016-10-27T11:51:47Z</time>
      </trkpt>
      <trkpt lat="43.23705" lon="5.6032">
        <ele>409</ele>
        <time>2016-10-27T11:52:07Z</time>
      </trkpt>
      <trkpt lat="43.2372" lon="5.6044">
        <ele>401</ele>
        <time>2016-10-27T11:52:27Z</time>
      </trkpt>
      <trkpt lat="43.23753" lon="5.60523">
        <ele>406</ele>
        <time>2016-10-27T11:52:47Z</time>
      </trkpt>
      <trkpt lat="43.238" lon="5.60573">
        <ele>404</ele>
        <time>2016-10-27T11:53:07Z</time>
      </trkpt>
      <trkpt lat="43.23822" lon="5.60629">
        <ele>408</ele>
        <time>2016-10-27T11:53:27Z</time>
      </trkpt>
      <trkpt lat="43.23856" lon="5.60663">
        <ele>403</ele>
        <time>2016-10-27T11:53:47Z</time>
      </trkpt>
      <trkpt lat="43.23875" lon="5.60727">
        <ele>406</ele>
        <time>2016-10-27T11:54:07Z</time>
      </trkpt>
      <trkpt lat="43.239" lon="5.60762">
        <ele>408</ele>
        <time>2016-10-27T11:54:27Z</time>
      </trkpt>
      <trkpt lat="43.23963" lon="5.60764">
        <ele>414</ele>
        <time>2016-10-27T11:54:47Z</time>
      </trkpt>
      <trkpt lat="43.24016" lon="5.60835">
        <ele>428</ele>
        <time>2016-10-27T11:55:07Z</time>
      </trkpt>
      <trkpt lat="43.24035" lon="5.60957">
        <ele>437</ele>
        <time>2016-10-27T11:55:27Z</time>
      </trkpt>
      <trkpt lat="43.24171" lon="5.61122">
        <ele>453</ele>
        <time>2016-10-27T11:55:47Z</time>
      </trkpt>
      <trkpt lat="43.24264" lon="5.61292">
        <ele>474</ele>
        <time>2016-10-27T11:56:07Z</time>
      </trkpt>
      <trkpt lat="43.24264" lon="5.61347">
        <ele>476</ele>
        <time>2016-10-27T11:56:27Z</time>
      </trkpt>
      <trkpt lat="43.2425" lon="5.61399">
        <ele>478</ele>
        <time>2016-10-27T11:56:47Z</time>
      </trkpt>
      <trkpt lat="43.24249" lon="5.61442">
        <ele>471</ele>
        <time>2016-10-27T11:57:07Z</time>
      </trkpt>
      <trkpt lat="43.24318" lon="5.61502">
        <ele>478</ele>
        <time>2016-10-27T11:57:27Z</time>
      </trkpt>
      <trkpt lat="43.24371" lon="5.61493">
        <ele>476</ele>
        <time>2016-10-27T11:57:47Z</time>
      </trkpt>
      <trkpt lat="43.24391" lon="5.61671">
        <ele>474</ele>
        <time>2016-10-27T11:58:07Z</time>
      </trkpt>
      <trkpt lat="43.24357" lon="5.61759">
        <ele>471</ele>
        <time>2016-10-27T11:58:27Z</time>
      </trkpt>
      <trkpt lat="43.24313" lon="5.61901">
        <ele>462</ele>
        <time>2016-10-27T11:58:47Z</time>
      </trkpt>
      <trkpt lat="43.24307" lon="5.61942">
        <ele>460</ele>
        <time>2016-10-27T11:59:07Z</time>
      </trkpt>
      <trkpt lat="43.24269" lon="5.62064">
        <ele>460</ele>
        <time>2016-10-27T11:59:27Z</time>
      </trkpt>
      <trkpt lat="43.24246" lon="5.62113">
        <ele>462</ele>
        <time>2016-10-27T11:59:47Z</time>
      </trkpt>
      <trkpt lat="43.2423" lon="5.62193">
        <ele>461</ele>
        <time>2016-10-27T12:00:07Z</time>
      </trkpt>
      <trkpt lat="43.24207" lon="5.62231">
        <ele>459</ele>
        <time>2016-10-27T12:00:27Z</time>
      </trkpt>
      <trkpt lat="43.24182" lon="5.62307">
        <ele>452</ele>
        <time>2016-10-27T12:00:47Z</time>
      </trkpt>
      <trkpt lat="43.24185" lon="5.62369">
        <ele>446</ele>
        <time>2016-10-27T12:01:07Z</time>
      </trkpt>
      <trkpt lat="43.24163" lon="5.62519">
        <ele>443</ele>
        <time>2016-10-27T12:01:27Z</time>
      </trkpt>
      <trkpt lat="43.24172" lon="5.6262">
        <ele>452</ele>
        <time>2016-10-27T12:01:47Z</time>
      </trkpt>
      <trkpt lat="43.24285" lon="5.62828">
        <ele>454</ele>
        <time>2016-10-27T12:02:07Z</time>
      </trkpt>
      <trkpt lat="43.24269" lon="5.62899">
        <ele>456</ele>
        <time>2016-10-27T12:02:27Z</time>
      </trkpt>
      <trkpt lat="43.24258" lon="5.62965">
        <ele>462</ele>
        <time>2016-10-27T12:02:47Z</time>
      </trkpt>
      <trkpt lat="43.24235" lon="5.63045">
        <ele>470</ele>
        <time>2016-10-27T12:03:07Z</time>
      </trkpt>
      <trkpt lat="43.24247" lon="5.63161">
        <ele>481</ele>
        <time>2016-10-27T12:03:27Z</time>
      </trkpt>
      <trkpt lat="43.24296" lon="5.63291">
        <ele>486</ele>
        <time>2016-10-27T12:03:47Z</time>
      </trkpt>
      <trkpt lat="43.24313" lon="5.63433">
        <ele>499</ele>
        <time>2016-10-27T12:04:07Z</time>
      </trkpt>
      <trkpt lat="43.24332" lon="5.63472">
        <ele>503</ele>
        <time>2016-10-27T12:04:27Z</time>
      </trkpt>
      <trkpt lat="43.24316" lon="5.63551">
        <ele>512</ele>
        <time>2016-10-27T12:04:47Z</time>
      </trkpt>
      <trkpt lat="43.24243" lon="5.63618">
        <ele>514</ele>
        <time>2016-10-27T12:05:07Z</time>
      </trkpt>
      <trkpt lat="43.24193" lon="5.63641">
        <ele>513</ele>
        <time>2016-10-27T12:05:27Z</time>
      </trkpt>
      <trkpt lat="43.2415" lon="5.63701">
        <ele>509</ele>
        <time>2016-10-27T12:05:47Z</time>
      </trkpt>
      <trkpt lat="43.24082" lon="5.63744">
        <ele>507</ele>
        <time>2016-10-27T12:06:07Z</time>
      </trkpt>
      <trkpt lat="43.24046" lon="5.63832">
        <ele>501</ele>
        <time>2016-10-27T12:06:27Z</time>
      </trkpt>
      <trkpt lat="43.24014" lon="5.64051">
        <ele>485</ele>
        <time>2016-10-27T12:06:47Z</time>
      </trkpt>
      <trkpt lat="43.23955" lon="5.64188">
        <ele>479</ele>
        <time>2016-10-27T12:07:07Z</time>
      </trkpt>
      <trkpt lat="43.23974" lon="5.64281">
        <ele>481</ele>
        <time>2016-10-27T12:07:27Z</time>
      </trkpt>
      <trkpt lat="43.23983" lon="5.64394">
        <ele>485</ele>
        <time>2016-10-27T12:07:47Z</time>
      </trkpt>
      <trkpt lat="43.24052" lon="5.64416">
        <ele>489</ele>
        <time>2016-10-27T12:08:07Z</time>
      </trkpt>
      <trkpt lat="43.24086" lon="5.64414">
        <ele>494</ele>
        <time>2016-10-27T12:08:27Z</time>
      </trkpt>
      <trkpt lat="43.24169" lon="5.64487">
        <ele>509</ele>
        <time>2016-10-27T12:08:47Z</time>
      </trkpt>
      <trkpt lat="43.24307" lon="5.64626">
        <ele>537</ele>
        <time>2016-10-27T12:09:07Z</time>
      </trkpt>
      <trkpt lat="43.24374" lon="5.64684">
        <ele>546</ele>
        <time>2016-10-27T12:09:27Z</time>
      </trkpt>
      <trkpt lat="43.24485" lon="5.64753">
        <ele>553</ele>
        <time>2016-10-27T12:09:47Z</time>
      </trkpt>
      <trkpt lat="43.24532" lon="5.64946">
        <ele>551</ele>
        <time>2016-10-27T12:10:07Z</time>
      </trkpt>
      <trkpt lat="43.24577" lon="5.64978">
        <ele>548</ele>
        <time>2016-10-27T12:10:27Z</time>
      </trkpt>
      <trkpt lat="43.24643" lon="5.65068">
        <ele>527</ele>
        <time>2016-10-27T12:10:47Z</time>
      </trkpt>
      <trkpt lat="43.24668" lon="5.6516">
        <ele>515</ele>
        <time>2016-10-27T12:11:07Z</time>
      </trkpt>
      <trkpt lat="43.24716" lon="5.65216">
        <ele>502</ele>
        <time>2016-10-27T12:11:27Z</time>
      </trkpt>
      <trkpt lat="43.24747" lon="5.65281">
        <ele>491</ele>
        <time>2016-10-27T12:11:47Z</time>
      </trkpt>
      <trkpt lat="43.24788" lon="5.65283">
        <ele>483</ele>
        <time>2016-10-27T12:12:07Z</time>
      </trkpt>
      <trkpt lat="43.24815" lon="5.65319">
        <ele>478</ele>
        <time>2016-10-27T12:12:27Z</time>
      </trkpt>
      <trkpt lat="43.24808" lon="5.6539">
        <ele>473</ele>
        <time>2016-10-27T12:12:47Z</time>
      </trkpt>
      <trkpt lat="43.24843" lon="5.65433">
        <ele>471</ele>
        <time>2016-10-27T12:13:07Z</time>
      </trkpt>
      <trkpt lat="43.24882" lon="5.6553">
        <ele>472</ele>
        <time>2016-10-27T12:13:27Z</time>
      </trkpt>
      <trkpt lat="43.24951" lon="5.65562">
        <ele>472</ele>
        <time>2016-10-27T12:13:47Z</time>
      </trkpt>
      <trkpt lat="43.25005" lon="5.65564">
        <ele>470</ele>
        <time>2016-10-27T12:14:07Z</time>
      </trkpt>
      <trkpt lat="43.25041" lon="5.65553">
        <ele>468</ele>
        <time>2016-10-27T12:14:27Z</time>
      </trkpt>
      <trkpt lat="43.2517" lon="5.65584">
        <ele>462</ele>
        <time>2016-10-27T12:14:47Z</time>
      </trkpt>
      <trkpt lat="43.2517" lon="5.65584">
        <ele>462</ele>
        <time>2016-10-27T12:15:07Z</time>
      </trkpt>
      <trkpt lat="43.25144" lon="5.65653">
        <ele>457</ele>
        <time>2016-10-27T12:15:27Z</time>
      </trkpt>
      <trkpt lat="43.25103" lon="5.65661">
        <ele>458</ele>
        <time>2016-10-27T12:15:47Z</time>
      </trkpt>
      <trkpt lat="43.2505" lon="5.65732">
        <ele>450</ele>
        <time>2016-10-27T12:16:07Z</time>
      </trkpt>
      <trkpt lat="43.2503" lon="5.65814">
        <ele>436</ele>
        <time>2016-10-27T12:16:27Z</time>
      </trkpt>
      <trkpt lat="43.24997" lon="5.6584">
        <ele>436</ele>
        <time>2016-10-27T12:16:47Z</time>
      </trkpt>
      <trkpt lat="43.24969" lon="5.65904">
        <ele>431</ele>
        <time>2016-10-27T12:17:07Z</time>
      </trkpt>
      <trkpt lat="43.24947" lon="5.66041">
        <ele>405</ele>
        <time>2016-10-27T12:17:27Z</time>
      </trkpt>
      <trkpt lat="43.24911" lon="5.66101">
        <ele>400</ele>
        <time>2016-10-27T12:17:47Z</time>
      </trkpt>
      <trkpt lat="43.24869" lon="5.66136">
        <ele>395</ele>
        <time>2016-10-27T12:18:07Z</time>
      </trkpt>
      <trkpt lat="43.24854" lon="5.66181">
        <ele>381</ele>
        <time>2016-10-27T12:18:27Z</time>
      </trkpt>
      <trkpt lat="43.24769" lon="5.66222">
        <ele>376</ele>
        <time>2016-10-27T12:18:47Z</time>
      </trkpt>
      <trkpt lat="43.24706" lon="5.66204">
        <ele>369</ele>
        <time>2016-10-27T12:19:07Z</time>
      </trkpt>
      <trkpt lat="43.24653" lon="5.66264">
        <ele>350</ele>
        <time>2016-10-27T12:19:27Z</time>
      </trkpt>
      <trkpt lat="43.24593" lon="5.66273">
        <ele>348</ele>
        <time>2016-10-27T12:19:47Z</time>
      </trkpt>
      <trkpt lat="43.24673" lon="5.66507">
        <ele>345</ele>
        <time>2016-10-27T12:20:07Z</time>
      </trkpt>
      <trkpt lat="43.24673" lon="5.66646">
        <ele>343</ele>
        <time>2016-10-27T12:20:27Z</time>
      </trkpt>
      <trkpt lat="43.24642" lon="5.66767">
        <ele>346</ele>
        <time>2016-10-27T12:20:47Z</time>
      </trkpt>
      <trkpt lat="43.2464" lon="5.66822">
        <ele>347</ele>
        <time>2016-10-27T12:21:07Z</time>
      </trkpt>
      <trkpt lat="43.24676" lon="5.66814">
        <ele>345</ele>
        <time>2016-10-27T12:21:27Z</time>
      </trkpt>
      <trkpt lat="43.24723" lon="5.66835">
        <ele>353</ele>
        <time>2016-10-27T12:21:47Z</time>
      </trkpt>
      <trkpt lat="43.24765" lon="5.66846">
        <ele>354</ele>
        <time>2016-10-27T12:22:07Z</time>
      </trkpt>
      <trkpt lat="43.24823" lon="5.66865">
        <ele>354</ele>
        <time>2016-10-27T12:22:27Z</time>
      </trkpt>
      <trkpt lat="43.24906" lon="5.66958">
        <ele>362</ele>
        <time>2016-10-27T12:22:47Z</time>
      </trkpt>
      <trkpt lat="43.24939" lon="5.67069">
        <ele>358</ele>
        <time>2016-10-27T12:23:07Z</time>
      </trkpt>
      <trkpt lat="43.24994" lon="5.67133">
        <ele>346</ele>
        <time>2016-10-27T12:23:27Z</time>
      </trkpt>
      <trkpt lat="43.25028" lon="5.6714">
        <ele>324</ele>
        <time>2016-10-27T12:23:47Z</time>
      </trkpt>
      <trkpt lat="43.25051" lon="5.67168">
        <ele>314</ele>
        <time>2016-10-27T12:24:07Z</time>
      </trkpt>
      <trkpt lat="43.25017" lon="5.67262">
        <ele>317</ele>
        <time>2016-10-27T12:24:27Z</time>
      </trkpt>
      <trkpt lat="43.25072" lon="5.67245">
        <ele>306</ele>
        <time>2016-10-27T12:24:47Z</time>
      </trkpt>
      <trkpt lat="43.25145" lon="5.6726">
        <ele>298</ele>
        <time>2016-10-27T12:25:07Z</time>
      </trkpt>
      <trkpt lat="43.25205" lon="5.67252">
        <ele>293</ele>
        <time>2016-10-27T12:25:27Z</time>
      </trkpt>
      <trkpt lat="43.2525" lon="5.67234">
        <ele>287</ele>
        <time>2016-10-27T12:25:47Z</time>
      </trkpt>
      <trkpt lat="43.25276" lon="5.67254">
        <ele>291</ele>
        <time>2016-10-27T12:26:07Z</time>
      </trkpt>
      <trkpt lat="43.25312" lon="5.67217">
        <ele>284</ele>
        <time>2016-10-27T12:26:27Z</time>
      </trkpt>
      <trkpt lat="43.25356" lon="5.67221">
        <ele>283</ele>
        <time>2016-10-27T12:26:47Z</time>
      </trkpt>
      <trkpt lat="43.25381" lon="5.67211">
        <ele>282</ele>
        <time>2016-10-27T12:27:07Z</time>
      </trkpt>
      <trkpt lat="43.25428" lon="5.67224">
        <ele>284</ele>
        <time>2016-10-27T12:27:27Z</time>
      </trkpt>
      <trkpt lat="43.25397" lon="5.6711">
        <ele>278</ele>
        <time>2016-10-27T12:27:47Z</time>
      </trkpt>
      <trkpt lat="43.25441" lon="5.67086">
        <ele>276</ele>
        <time>2016-10-27T12:28:07Z</time>
      </trkpt>
      <trkpt lat="43.25456" lon="5.67058">
        <ele>275</ele>
        <time>2016-10-27T12:28:27Z</time>
      </trkpt>
      <trkpt lat="43.25502" lon="5.67041">
        <ele>272</ele>
        <time>2016-10-27T12:28:47Z</time>
      </trkpt>
      <trkpt lat="43.25516" lon="5.6702">
        <ele>272</ele>
        <time>2016-10-27T12:29:07Z</time>
      </trkpt>
      <trkpt lat="43.2558" lon="5.67024">
        <ele>271</ele>
        <time>2016-10-27T12:29:27Z</time>
      </trkpt>
      <trkpt lat="43.25639" lon="5.66958">
        <ele>268</ele>
        <time>2016-10-27T12:29:47Z</time>
      </trkpt>
      <trkpt lat="43.25656" lon="5.66906">
        <ele>266</ele>
        <time>2016-10-27T12:30:07Z</time>
      </trkpt>
      <trkpt lat="43.25756" lon="5.66878">
        <ele>265</ele>
        <time>2016-10-27T12:30:27Z</time>
      </trkpt>
      <trkpt lat="43.25822" lon="5.66807">
        <ele>264</ele>
        <time>2016-10-27T12:30:47Z</time>
      </trkpt>
      <trkpt lat="43.25866" lon="5.66805">
        <ele>259</ele>
        <time>2016-10-27T12:31:07Z</time>
      </trkpt>
      <trkpt lat="43.25891" lon="5.66758">
        <ele>257</ele>
        <time>2016-10-27T12:31:27Z</time>
      </trkpt>
      <trkpt lat="43.25984" lon="5.66745">
        <ele>243</ele>
        <time>2016-10-27T12:31:47Z</time>
      </trkpt>
      <trkpt lat="43.26016" lon="5.66801">
        <ele>241</ele>
        <time>2016-10-27T12:32:07Z</time>
      </trkpt>
      <trkpt lat="43.26039" lon="5.66923">
        <ele>242</ele>
        <time>2016-10-27T12:32:27Z</time>
      </trkpt>
      <trkpt lat="43.26059" lon="5.66953">
        <ele>240</ele>
        <time>2016-10-27T12:32:47Z</time>
      </trkpt>
      <trkpt lat="43.26188" lon="5.66895">
        <ele>234</ele>
        <time>2016-10-27T12:33:07Z</time>
      </trkpt>
      <trkpt lat="43.26225" lon="5.66915">
        <ele>231</ele>
        <time>2016-10-27T12:33:27Z</time>
      </trkpt>
      <trkpt lat="43.26244" lon="5.67003">
        <ele>235</ele>
        <time>2016-10-27T12:33:47Z</time>
      </trkpt>
      <trkpt lat="43.26267" lon="5.67039">
        <ele>232</ele>
        <time>2016-10-27T12:34:07Z</time>
      </trkpt>
      <trkpt lat="43.2645" lon="5.67127">
        <ele>228</ele>
        <time>2016-10-27T12:34:27Z</time>
      </trkpt>
      <trkpt lat="43.2648" lon="5.67129">
        <ele>228</ele>
        <time>2016-10-27T12:34:47Z</time>
      </trkpt>
      <trkpt lat="43.26578" lon="5.66979">
        <ele>224</ele>
        <time>2016-10-27T12:35:07Z</time>
      </trkpt>
      <trkpt lat="43.26634" lon="5.67097">
        <ele>231</ele>
        <time>2016-10-27T12:35:27Z</time>
      </trkpt>
      <trkpt lat="43.26675" lon="5.6703">
        <ele>238</ele>
        <time>2016-10-27T12:35:47Z</time>
      </trkpt>
      <trkpt lat="43.26684" lon="5.67108">
        <ele>240</ele>
        <time>2016-10-27T12:36:07Z</time>
      </trkpt>
      <trkpt lat="43.26716" lon="5.6714">
        <ele>242</ele>
        <time>2016-10-27T12:36:27Z</time>
      </trkpt>
      <trkpt lat="43.26827" lon="5.67204">
        <ele>257</ele>
        <time>2016-10-27T12:36:47Z</time>
      </trkpt>
      <trkpt lat="43.26816" lon="5.67131">
        <ele>265</ele>
        <time>2016-10-27T12:37:07Z</time>
      </trkpt>
      <trkpt lat="43.26839" lon="5.66998">
        <ele>287</ele>
        <time>2016-10-27T12:37:27Z</time>
      </trkpt>
      <trkpt lat="43.26847" lon="5.66985">
        <ele>295</ele>
        <time>2016-10-27T12:37:47Z</time>
      </trkpt>
      <trkpt lat="43.26836" lon="5.66827">
        <ele>309</ele>
        <time>2016-10-27T12:38:07Z</time>
      </trkpt>
      <trkpt lat="43.26842" lon="5.66683">
        <ele>324</ele>
        <time>2016-10-27T12:38:27Z</time>
      </trkpt>
      <trkpt lat="43.26909" lon="5.66496">
        <ele>338</ele>
        <time>2016-10-27T12:38:47Z</time>
      </trkpt>
      <trkpt lat="43.26969" lon="5.66505">
        <ele>364</ele>
        <time>2016-10-27T12:39:07Z</time>
      </trkpt>
      <trkpt lat="43.2695" lon="5.6643">
        <ele>356</ele>
        <time>2016-10-27T12:39:27Z</time>
      </trkpt>
      <trkpt lat="43.2698" lon="5.66331">
        <ele>364</ele>
        <time>2016-10-27T12:39:47Z</time>
      </trkpt>
      <trkpt lat="43.26994" lon="5.66219">
        <ele>354</ele>
        <time>2016-10-27T12:40:07Z</time>
      </trkpt>
      <trkpt lat="43.27036" lon="5.66153">
        <ele>359</ele>
        <time>2016-10-27T12:40:27Z</time>
      </trkpt>
      <trkpt lat="43.27058" lon="5.6614">
        <ele>359</ele>
        <time>2016-10-27T12:40:47Z</time>
      </trkpt>
      <trkpt lat="43.27091" lon="5.66174">
        <ele>373</ele>
        <time>2016-10-27T12:41:07Z</time>
      </trkpt>
      <trkpt lat="43.27114" lon="5.66183">
        <ele>374</ele>
        <time>2016-10-27T12:41:27Z</time>
      </trkpt>
      <trkpt lat="43.27178" lon="5.66247">
        <ele>380</ele>
        <time>2016-10-27T12:41:47Z</time>
      </trkpt>
      <trkpt lat="43.27209" lon="5.66217">
        <ele>376</ele>
        <time>2016-10-27T12:42:07Z</time>
      </trkpt>
      <trkpt lat="43.27252" lon="5.662">
        <ele>380</ele>
        <time>2016-10-27T12:42:27Z</time>
      </trkpt>
      <trkpt lat="43.27358" lon="5.66234">
        <ele>390</ele>
        <time>2016-10-27T12:42:47Z</time>
      </trkpt>
      <trkpt lat="43.27408" lon="5.66271">
        <ele>405</ele>
        <time>2016-10-27T12:43:07Z</time>
      </trkpt>
      <trkpt lat="43.27444" lon="5.66262">
        <ele>405</ele>
        <time>2016-10-27T12:43:27Z</time>
      </trkpt>
      <trkpt lat="43.27472" lon="5.6631">
        <ele>410</ele>
        <time>2016-10-27T12:43:47Z</time>
      </trkpt>
      <trkpt lat="43.27533" lon="5.6635">
        <ele>420</ele>
        <time>2016-10-27T12:44:07Z</time>
      </trkpt>
      <trkpt lat="43.27612" lon="5.66372">
        <ele>426</ele>
        <time>2016-10-27T12:44:27Z</time>
      </trkpt>
      <trkpt lat="43.27616" lon="5.66402">
        <ele>428</ele>
        <time>2016-10-27T12:44:47Z</time>
      </trkpt>
      <trkpt lat="43.27644" lon="5.66397">
        <ele>429</ele>
        <time>2016-10-27T12:45:07Z</time>
      </trkpt>
      <trkpt lat="43.27667" lon="5.66421">
        <ele>436</ele>
        <time>2016-10-27T12:45:27Z</time>
      </trkpt>
      <trkpt lat="43.27673" lon="5.66473">
        <ele>444</ele>
        <time>2016-10-27T12:45:47Z</time>
      </trkpt>
      <trkpt lat="43.27753" lon="5.66492">
        <ele>453</ele>
        <time>2016-10-27T12:46:07Z</time>
      </trkpt>
      <trkpt lat="43.27772" lon="5.66518">
        <ele>460</ele>
        <time>2016-10-27T12:46:27Z</time>
      </trkpt>
      <trkpt lat="43.27825" lon="5.66548">
        <ele>466</ele>
        <time>2016-10-27T12:46:47Z</time>
      </trkpt>
      <trkpt lat="43.2783" lon="5.66565">
        <ele>468</ele>
        <time>2016-10-27T12:47:07Z</time>
      </trkpt>
      <trkpt lat="43.27859" lon="5.6658">
        <ele>474</ele>
        <time>2016-10-27T12:47:27Z</time>
      </trkpt>
      <trkpt lat="43.27892" lon="5.66576">
        <ele>477</ele>
        <time>2016-10-27T12:47:47Z</time>
      </trkpt>
      <trkpt lat="43.27892" lon="5.66616">
        <ele>473</ele>
        <time>2016-10-27T12:48:07Z</time>
      </trkpt>
      <trkpt lat="43.27997" lon="5.66655">
        <ele>482</ele>
        <time>2016-10-27T12:48:27Z</time>
      </trkpt>
      <trkpt lat="43.28095" lon="5.66758">
        <ele>484</ele>
        <time>2016-10-27T12:48:47Z</time>
      </trkpt>
      <trkpt lat="43.28164" lon="5.6679">
        <ele>484</ele>
        <time>2016-10-27T12:49:07Z</time>
      </trkpt>
      <trkpt lat="43.28209" lon="5.6682">
        <ele>478</ele>
        <time>2016-10-27T12:49:27Z</time>
      </trkpt>
      <trkpt lat="43.2823" lon="5.66852">
        <ele>469</ele>
        <time>2016-10-27T12:49:47Z</time>
      </trkpt>
      <trkpt lat="43.28292" lon="5.66895">
        <ele>459</ele>
        <time>2016-10-27T12:50:07Z</time>
      </trkpt>
      <trkpt lat="43.28295" lon="5.66925">
        <ele>458</ele>
        <time>2016-10-27T12:50:27Z</time>
      </trkpt>
      <trkpt lat="43.28333" lon="5.66893">
        <ele>457</ele>
        <time>2016-10-27T12:50:47Z</time>
      </trkpt>
      <trkpt lat="43.28342" lon="5.66872">
        <ele>450</ele>
        <time>2016-10-27T12:51:07Z</time>
      </trkpt>
      <trkpt lat="43.28359" lon="5.66865">
        <ele>449</ele>
        <time>2016-10-27T12:51:27Z</time>
      </trkpt>
      <trkpt lat="43.2839" lon="5.6682">
        <ele>448</ele>
        <time>2016-10-27T12:51:47Z</time>
      </trkpt>
      <trkpt lat="43.28454" lon="5.66844">
        <ele>440</ele>
        <time>2016-10-27T12:52:07Z</time>
      </trkpt>
      <trkpt lat="43.28445" lon="5.66925">
        <ele>449</ele>
        <time>2016-10-27T12:52:27Z</time>
      </trkpt>
      <trkpt lat="43.28475" lon="5.66891">
        <ele>442</ele>
        <time>2016-10-27T12:52:47Z</time>
      </trkpt>
      <trkpt lat="43.28503" lon="5.66895">
        <ele>436</ele>
        <time>2016-10-27T12:53:07Z</time>
      </trkpt>
      <trkpt lat="43.28523" lon="5.66968">
        <ele>445</ele>
        <time>2016-10-27T12:53:27Z</time>
      </trkpt>
      <trkpt lat="43.28565" lon="5.67063">
        <ele>456</ele>
        <time>2016-10-27T12:53:47Z</time>
      </trkpt>
      <trkpt lat="43.28568" lon="5.67127">
        <ele>463</ele>
        <time>2016-10-27T12:54:07Z</time>
      </trkpt>
      <trkpt lat="43.28595" lon="5.67217">
        <ele>468</ele>
        <time>2016-10-27T12:54:27Z</time>
      </trkpt>
      <trkpt lat="43.28617" lon="5.67224">
        <ele>467</ele>
        <time>2016-10-27T12:54:47Z</time>
      </trkpt>
      <trkpt lat="43.28659" lon="5.67305">
        <ele>478</ele>
        <time>2016-10-27T12:55:07Z</time>
      </trkpt>
      <trkpt lat="43.28647" lon="5.67376">
        <ele>487</ele>
        <time>2016-10-27T12:55:27Z</time>
      </trkpt>
      <trkpt lat="43.28676" lon="5.67475">
        <ele>503</ele>
        <time>2016-10-27T12:55:47Z</time>
      </trkpt>
      <trkpt lat="43.28826" lon="5.67571">
        <ele>515</ele>
        <time>2016-10-27T12:56:07Z</time>
      </trkpt>
      <trkpt lat="43.28929" lon="5.67661">
        <ele>523</ele>
        <time>2016-10-27T12:56:27Z</time>
      </trkpt>
      <trkpt lat="43.28965" lon="5.67651">
        <ele>530</ele>
        <time>2016-10-27T12:56:47Z</time>
      </trkpt>
      <trkpt lat="43.28954" lon="5.67625">
        <ele>531</ele>
        <time>2016-10-27T12:57:07Z</time>
      </trkpt>
      <trkpt lat="43.28956" lon="5.67593">
        <ele>532</ele>
        <time>2016-10-27T12:57:27Z</time>
      </trkpt>
      <trkpt lat="43.28971" lon="5.6756">
        <ele>539</ele>
        <time>2016-10-27T12:57:47Z</time>
      </trkpt>
      <trkpt lat="43.28953" lon="5.67535">
        <ele>539</ele>
        <time>2016-10-27T12:58:07Z</time>
      </trkpt>
      <trkpt lat="43.28951" lon="5.675">
        <ele>539</ele>
        <time>2016-10-27T12:58:27Z</time>
      </trkpt>
      <trkpt lat="43.28986" lon="5.67466">
        <ele>539</ele>
        <time>2016-10-27T12:58:47Z</time>
      </trkpt>
      <trkpt lat="43.29018" lon="5.67492">
        <ele>538</ele>
        <time>2016-10-27T12:59:07Z</time>
      </trkpt>
      <trkpt lat="43.29045" lon="5.67591">
        <ele>543</ele>
        <time>2016-10-27T12:59:27Z</time>
      </trkpt>
      <trkpt lat="43.29101" lon="5.67648">
        <ele>551</ele>
        <time>2016-10-27T12:59:47Z</time>
      </trkpt>
      <trkpt lat="43.2927" lon="5.67717">
        <ele>587</ele>
        <time>2016-10-27T13:00:07Z</time>
      </trkpt>
      <trkpt lat="43.29289" lon="5.67696">
        <ele>586</ele>
        <time>2016-10-27T13:00:27Z</time>
      </trkpt>
      <trkpt lat="43.29306" lon="5.67726">
        <ele>591</ele>
        <time>2016-10-27T13:00:47Z</time>
      </trkpt>
      <trkpt lat="43.29324" lon="5.67726">
        <ele>593</ele>
        <time>2016-10-27T13:01:07Z</time>
      </trkpt>
      <trkpt lat="43.29321" lon="5.67749">
        <ele>597</ele>
        <time>2016-10-27T13:01:27Z</time>
      </trkpt>
      <trkpt lat="43.29381" lon="5.67745">
        <ele>607</ele>
        <time>2016-10-27T13:01:47Z</time>
      </trkpt>
      <trkpt lat="43.29468" lon="5.67769">
        <ele>627</ele>
        <time>2016-10-27T13:02:07Z</time>
      </trkpt>
      <trkpt lat="43.29518" lon="5.67762">
        <ele>632</ele>
        <time>2016-10-27T13:02:27Z</time>
      </trkpt>
      <trkpt lat="43.29538" lon="5.67801">
        <ele>634</ele>
        <time>2016-10-27T13:02:47Z</time>
      </trkpt>
      <trkpt lat="43.29584" lon="5.67801">
        <ele>637</ele>
        <time>2016-10-27T13:03:07Z</time>
      </trkpt>
      <trkpt lat="43.29641" lon="5.67827">
        <ele>639</ele>
        <time>2016-10-27T13:03:27Z</time>
      </trkpt>
      <trkpt lat="43.29687" lon="5.67816">
        <ele>645</ele>
        <time>2016-10-27T13:03:47Z</time>
      </trkpt>
      <trkpt lat="43.29709" lon="5.67751">
        <ele>645</ele>
        <time>2016-10-27T13:04:07Z</time>
      </trkpt>
      <trkpt lat="43.29752" lon="5.67711">
        <ele>656</ele>
        <time>2016-10-27T13:04:27Z</time>
      </trkpt>
      <trkpt lat="43.2976" lon="5.67668">
        <ele>651</ele>
        <time>2016-10-27T13:04:47Z</time>
      </trkpt>
      <trkpt lat="43.2981" lon="5.67657">
        <ele>663</ele>
        <time>2016-10-27T13:05:07Z</time>
      </trkpt>
      <trkpt lat="43.29851" lon="5.67694">
        <ele>679</ele>
        <time>2016-10-27T13:05:27Z</time>
      </trkpt>
      <trkpt lat="43.29898" lon="5.67792">
        <ele>688</ele>
        <time>2016-10-27T13:05:47Z</time>
      </trkpt>
      <trkpt lat="43.2994" lon="5.67854">
        <ele>705</ele>
        <time>2016-10-27T13:06:07Z</time>
      </trkpt>
      <trkpt lat="43.29974" lon="5.67887">
        <ele>708</ele>
        <time>2016-10-27T13:06:27Z</time>
      </trkpt>
      <trkpt lat="43.30016" lon="5.67979">
        <ele>713</ele>
        <time>2016-10-27T13:06:47Z</time>
      </trkpt>
      <trkpt lat="43.30038" lon="5.68003">
        <ele>712</ele>
        <time>2016-10-27T13:07:07Z</time>
      </trkpt>
      <trkpt lat="43.30076" lon="5.68075">
        <ele>707</ele>
        <time>2016-10-27T13:07:27Z</time>
      </trkpt>
      <trkpt lat="43.30077" lon="5.6814">
        <ele>706</ele>
        <time>2016-10-27T13:07:47Z</time>
      </trkpt>
      <trkpt lat="43.30079" lon="5.68266">
        <ele>701</ele>
        <time>2016-10-27T13:08:07Z</time>
      </trkpt>
      <trkpt lat="43.30101" lon="5.68318">
        <ele>708</ele>
        <time>2016-10-27T13:08:27Z</time>
      </trkpt>
      <trkpt lat="43.30107" lon="5.68365">
        <ele>711</ele>
        <time>2016-10-27T13:08:47Z</time>
      </trkpt>
      <trkpt lat="43.30127" lon="5.68419">
        <ele>716</ele>
        <time>2016-10-27T13:09:07Z</time>
      </trkpt>
      <trkpt lat="43.30133" lon="5.68472">
        <ele>717</ele>
        <time>2016-10-27T13:09:27Z</time>
      </trkpt>
      <trkpt lat="43.30155" lon="5.6855">
        <ele>718</ele>
        <time>2016-10-27T13:09:47Z</time>
      </trkpt>
      <trkpt lat="43.30165" lon="5.68586">
        <ele>720</ele>
        <time>2016-10-27T13:10:07Z</time>
      </trkpt>
      <trkpt lat="43.30216" lon="5.68698">
        <ele>731</ele>
        <time>2016-10-27T13:10:27Z</time>
      </trkpt>
      <trkpt lat="43.30236" lon="5.68777">
        <ele>735</ele>
        <time>2016-10-27T13:10:47Z</time>
      </trkpt>
      <trkpt lat="43.3026" lon="5.68831">
        <ele>737</ele>
        <time>2016-10-27T13:11:07Z</time>
      </trkpt>
      <trkpt lat="43.30265" lon="5.68872">
        <ele>743</ele>
        <time>2016-10-27T13:11:27Z</time>
      </trkpt>
      <trkpt lat="43.3029" lon="5.68906">
        <ele>745</ele>
        <time>2016-10-27T13:11:47Z</time>
      </trkpt>
      <trkpt lat="43.30304" lon="5.69002">
        <ele>747</ele>
        <time>2016-10-27T13:12:07Z</time>
      </trkpt>
      <trkpt lat="43.30299" lon="5.69058">
        <ele>747</ele>
        <time>2016-10-27T13:12:27Z</time>
      </trkpt>
      <trkpt lat="43.30315" lon="5.6911">
        <ele>747</ele>
        <time>2016-10-27T13:12:47Z</time>
      </trkpt>
      <trkpt lat="43.3033" lon="5.69168">
        <ele>748</ele>
        <time>2016-10-27T13:13:07Z</time>
      </trkpt>
      <trkpt lat="43.30355" lon="5.69208">
        <ele>756</ele>
        <time>2016-10-27T13:13:27Z</time>
      </trkpt>
      <trkpt lat="43.30366" lon="5.69269">
        <ele>759</ele>
        <time>2016-10-27T13:13:47Z</time>
      </trkpt>
      <trkpt lat="43.30352" lon="5.69294">
        <ele>759</ele>
        <time>2016-10-27T13:14:07Z</time>
      </trkpt>
      <trkpt lat="43.30368" lon="5.69498">
        <ele>763</ele>
        <time>2016-10-27T13:14:27Z</time>
      </trkpt>
      <trkpt lat="43.30432" lon="5.6958">
        <ele>772</ele>
        <time>2016-10-27T13:14:47Z</time>
      </trkpt>
      <trkpt lat="43.30435" lon="5.69631">
        <ele>774</ele>
        <time>2016-10-27T13:15:07Z</time>
      </trkpt>
      <trkpt lat="43.30444" lon="5.69717">
        <ele>773</ele>
        <time>2016-10-27T13:15:27Z</time>
      </trkpt>
      <trkpt lat="43.3048" lon="5.6976">
        <ele>773</ele>
        <time>2016-10-27T13:15:47Z</time>
      </trkpt>
      <trkpt lat="43.30524" lon="5.69738">
        <ele>792</ele>
        <time>2016-10-27T13:16:07Z</time>
      </trkpt>
      <trkpt lat="43.30568" lon="5.69745">
        <ele>803</ele>
        <time>2016-10-27T13:16:27Z</time>
      </trkpt>
      <trkpt lat="43.30608" lon="5.69764">
        <ele>819</ele>
        <time>2016-10-27T13:16:47Z</time>
      </trkpt>
      <trkpt lat="43.30622" lon="5.6973">
        <ele>828</ele>
        <time>2016-10-27T13:17:07Z</time>
      </trkpt>
      <trkpt lat="43.30644" lon="5.69747">
        <ele>834</ele>
        <time>2016-10-27T13:17:27Z</time>
      </trkpt>
      <trkpt lat="43.30672" lon="5.69708">
        <ele>860</ele>
        <time>2016-10-27T13:17:47Z</time>
      </trkpt>
      <trkpt lat="43.30689" lon="5.69726">
        <ele>861</ele>
        <time>2016-10-27T13:18:07Z</time>
      </trkpt>
      <trkpt lat="43.30714" lon="5.69728">
        <ele>868</ele>
        <time>2016-10-27T13:18:27Z</time>
      </trkpt>
      <trkpt lat="43.30785" lon="5.69792">
        <ele>885</ele>
        <time>2016-10-27T13:18:47Z</time>
      </trkpt>
      <trkpt lat="43.30841" lon="5.69796">
        <ele>905</ele>
        <time>2016-10-27T13:19:07Z</time>
      </trkpt>
      <trkpt lat="43.30864" lon="5.69775">
        <ele>910</ele>
        <time>2016-10-27T13:19:27Z</time>
      </trkpt>
      <trkpt lat="43.30917" lon="5.69771">
        <ele>928</ele>
        <time>2016-10-27T13:19:47Z</time>
      </trkpt>
      <trkpt lat="43.30955" lon="5.69794">
        <ele>932</ele>
        <time>2016-10-27T13:20:07Z</time>
      </trkpt>
      <trkpt lat="43.31011" lon="5.69792">
        <ele>948</ele>
        <time>2016-10-27T13:20:27Z</time>
      </trkpt>
      <trkpt lat="43.31041" lon="5.69826">
        <ele>949</ele>
        <time>2016-10-27T13:20:47Z</time>
      </trkpt>
      <trkpt lat="43.31062" lon="5.69811">
        <ele>951</ele>
        <time>2016-10-27T13:21:07Z</time>
      </trkpt>
      <trkpt lat="43.31177" lon="5.70237">
        <ele>961</ele>
        <time>2016-10-27T13:21:27Z</time>
      </trkpt>
      <trkpt lat="43.312" lon="5.70362">
        <ele>963</ele>
        <time>2016-10-27T13:21:47Z</time>
      </trkpt>
      <trkpt lat="43.31213" lon="5.70486">
        <ele>964</ele>
        <time>2016-10-27T13:22:07Z</time>
      </trkpt>
      <trkpt lat="43.31228" lon="5.70529">
        <ele>963</ele>
        <time>2016-10-27T13:22:27Z</time>
      </trkpt>
      <trkpt lat="43.31246" lon="5.70656">
        <ele>962</ele>
        <time>2016-10-27T13:22:47Z</time>
      </trkpt>
      <trkpt lat="43.31319" lon="5.70776">
        <ele>969</ele>
        <time>2016-10-27T13:23:07Z</time>
      </trkpt>
      <trkpt lat="43.31336" lon="5.70838">
        <ele>975</ele>
        <time>2016-10-27T13:23:27Z</time>
      </trkpt>
      <trkpt lat="43.31366" lon="5.70883">
        <ele>980</ele>
        <time>2016-10-27T13:23:47Z</time>
      </trkpt>
      <trkpt lat="43.31397" lon="5.70975">
        <ele>981</ele>
        <time>2016-10-27T13:24:07Z</time>
      </trkpt>
      <trkpt lat="43.31402" lon="5.71042">
        <ele>975</ele>
        <time>2016-10-27T13:24:27Z</time>
      </trkpt>
      <trkpt lat="43.31442" lon="5.71141">
        <ele>988</ele>
        <time>2016-10-27T13:24:47Z</time>
      </trkpt>
      <trkpt lat="43.31449" lon="5.71196">
        <ele>985</ele>
        <time>2016-10-27T13:25:07Z</time>
      </trkpt>
      <trkpt lat="43.31467" lon="5.71263">
        <ele>982</ele>
        <time>2016-10-27T13:25:27Z</time>
      </trkpt>
      <trkpt lat="43.31492" lon="5.71269">
        <ele>988</ele>
        <time>2016-10-27T13:25:47Z</time>
      </trkpt>
      <trkpt lat="43.31516" lon="5.71334">
        <ele>992</ele>
        <time>2016-10-27T13:26:07Z</time>
      </trkpt>
      <trkpt lat="43.31539" lon="5.7136">
        <ele>996</ele>
        <time>2016-10-27T13:26:27Z</time>
      </trkpt>
      <trkpt lat="43.31534" lon="5.71383">
        <ele>994</ele>
        <time>2016-10-27T13:26:47Z</time>
      </trkpt>
      <trkpt lat="43.31553" lon="5.71518">
        <ele>994</ele>
        <time>2016-10-27T13:27:07Z</time>
      </trkpt>
      <trkpt lat="43.31567" lon="5.71538">
        <ele>995</ele>
        <time>2016-10-27T13:27:27Z</time>
      </trkpt>
      <trkpt lat="43.3163" lon="5.71735">
        <ele>1017</ele>
        <time>2016-10-27T13:27:47Z</time>
      </trkpt>
      <trkpt lat="43.31636" lon="5.71855">
        <ele>1013</ele>
        <time>2016-10-27T13:28:07Z</time>
      </trkpt>
      <trkpt lat="43.31633" lon="5.71896">
        <ele>1012</ele>
        <time>2016-10-27T13:28:27Z</time>
      </trkpt>
      <trkpt lat="43.31644" lon="5.71997">
        <ele>1014</ele>
        <time>2016-10-27T13:28:47Z</time>
      </trkpt>
      <trkpt lat="43.31672" lon="5.72154">
        <ele>1007</ele>
        <time>2016-10-27T13:29:07Z</time>
      </trkpt>
      <trkpt lat="43.31678" lon="5.72323">
        <ele>996</ele>
        <time>2016-10-27T13:29:27Z</time>
      </trkpt>
      <trkpt lat="43.31686" lon="5.7245">
        <ele>990</ele>
        <time>2016-10-27T13:29:47Z</time>
      </trkpt>
      <trkpt lat="43.31706" lon="5.72523">
        <ele>988</ele>
        <time>2016-10-27T13:30:07Z</time>
      </trkpt>
      <trkpt lat="43.31709" lon="5.72598">
        <ele>985</ele>
        <time>2016-10-27T13:30:27Z</time>
      </trkpt>
      <trkpt lat="43.31755" lon="5.72825">
        <ele>982</ele>
        <time>2016-10-27T13:30:47Z</time>
      </trkpt>
      <trkpt lat="43.3179" lon="5.72917">
        <ele>968</ele>
        <time>2016-10-27T13:31:07Z</time>
      </trkpt>
      <trkpt lat="43.31794" lon="5.72988">
        <ele>965</ele>
        <time>2016-10-27T13:31:27Z</time>
      </trkpt>
      <trkpt lat="43.31808" lon="5.73018">
        <ele>963</ele>
        <time>2016-10-27T13:31:47Z</time>
      </trkpt>
      <trkpt lat="43.31814" lon="5.73104">
        <ele>963</ele>
        <time>2016-10-27T13:32:07Z</time>
      </trkpt>
      <trkpt lat="43.31859" lon="5.73235">
        <ele>959</ele>
        <time>2016-10-27T13:32:27Z</time>
      </trkpt>
      <trkpt lat="43.31875" lon="5.73355">
        <ele>957</ele>
        <time>2016-10-27T13:32:47Z</time>
      </trkpt>
      <trkpt lat="43.31928" lon="5.73488">
        <ele>953</ele>
        <time>2016-10-27T13:33:07Z</time>
      </trkpt>
      <trkpt lat="43.31984" lon="5.73741">
        <ele>960</ele>
        <time>2016-10-27T13:33:27Z</time>
      </trkpt>
      <trkpt lat="43.32012" lon="5.73784">
        <ele>951</ele>
        <time>2016-10-27T13:33:47Z</time>
      </trkpt>
      <trkpt lat="43.32042" lon="5.73926">
        <ele>955</ele>
        <time>2016-10-27T13:34:07Z</time>
      </trkpt>
      <trkpt lat="43.32062" lon="5.73958">
        <ele>957</ele>
        <time>2016-10-27T13:34:27Z</time>
      </trkpt>
      <trkpt lat="43.32096" lon="5.74087">
        <ele>960</ele>
        <time>2016-10-27T13:34:47Z</time>
      </trkpt>
      <trkpt lat="43.32135" lon="5.74171">
        <ele>955</ele>
        <time>2016-10-27T13:35:07Z</time>
      </trkpt>
      <trkpt lat="43.32195" lon="5.74419">
        <ele>950</ele>
        <time>2016-10-27T13:35:27Z</time>
      </trkpt>
      <trkpt lat="43.32228" lon="5.74434">
        <ele>948</ele>
        <time>2016-10-27T13:35:47Z</time>
      </trkpt>
      <trkpt lat="43.32213" lon="5.7446">
        <ele>950</ele>
        <time>2016-10-27T13:36:07Z</time>
      </trkpt>
      <trkpt lat="43.32231" lon="5.74529">
        <ele>953</ele>
        <time>2016-10-27T13:36:27Z</time>
      </trkpt>
      <trkpt lat="43.32263" lon="5.74574">
        <ele>950</ele>
        <time>2016-10-27T13:36:47Z</time>
      </trkpt>
      <trkpt lat="43.32271" lon="5.74628">
        <ele>952</ele>
        <time>2016-10-27T13:37:07Z</time>
      </trkpt>
      <trkpt lat="43.32292" lon="5.74696">
        <ele>953</ele>
        <time>2016-10-27T13:37:27Z</time>
      </trkpt>
      <trkpt lat="43.32296" lon="5.74748">
        <ele>953</ele>
        <time>2016-10-27T13:37:47Z</time>
      </trkpt>
      <trkpt lat="43.32348" lon="5.74887">
        <ele>936</ele>
        <time>2016-10-27T13:38:07Z</time>
      </trkpt>
      <trkpt lat="43.32374" lon="5.75108">
        <ele>934</ele>
        <time>2016-10-27T13:38:27Z</time>
      </trkpt>
      <trkpt lat="43.32377" lon="5.75185">
        <ele>938</ele>
        <time>2016-10-27T13:38:47Z</time>
      </trkpt>
      <trkpt lat="43.32395" lon="5.75299">
        <ele>940</ele>
        <time>2016-10-27T13:39:07Z</time>
      </trkpt>
      <trkpt lat="43.32424" lon="5.75355">
        <ele>921</ele>
        <time>2016-10-27T13:39:27Z</time>
      </trkpt>
      <trkpt lat="43.32423" lon="5.75484">
        <ele>929</ele>
        <time>2016-10-27T13:39:47Z</time>
      </trkpt>
      <trkpt lat="43.32441" lon="5.75509">
        <ele>928</ele>
        <time>2016-10-27T13:40:07Z</time>
      </trkpt>
      <trkpt lat="43.32463" lon="5.75505">
        <ele>918</ele>
        <time>2016-10-27T13:40:27Z</time>
      </trkpt>
      <trkpt lat="43.3247" lon="5.75563">
        <ele>923</ele>
        <time>2016-10-27T13:40:47Z</time>
      </trkpt>
      <trkpt lat="43.32487" lon="5.75612">
        <ele>930</ele>
        <time>2016-10-27T13:41:07Z</time>
      </trkpt>
      <trkpt lat="43.32485" lon="5.75664">
        <ele>932</ele>
        <time>2016-10-27T13:41:27Z</time>
      </trkpt>
      <trkpt lat="43.32496" lon="5.7572">
        <ele>932</ele>
        <time>2016-10-27T13:41:47Z</time>
      </trkpt>
      <trkpt lat="43.32493" lon="5.75737">
        <ele>932</ele>
        <time>2016-10-27T13:42:07Z</time>
      </trkpt>
      <trkpt lat="43.3251" lon="5.75769">
        <ele>917</ele>
        <time>2016-10-27T13:42:27Z</time>
      </trkpt>
      <trkpt lat="43.32512" lon="5.75808">
        <ele>916</ele>
        <time>2016-10-27T13:42:47Z</time>
      </trkpt>
      <trkpt lat="43.32521" lon="5.75833">
        <ele>922</ele>
        <time>2016-10-27T13:43:07Z</time>
      </trkpt>
      <trkpt lat="43.32527" lon="5.75876">
        <ele>918</ele>
        <time>2016-10-27T13:43:27Z</time>
      </trkpt>
      <trkpt lat="43.32546" lon="5.75924">
        <ele>921</ele>
        <time>2016-10-27T13:43:47Z</time>
      </trkpt>
      <trkpt lat="43.32549" lon="5.76007">
        <ele>927</ele>
        <time>2016-10-27T13:44:07Z</time>
      </trkpt>
      <trkpt lat="43.32576" lon="5.76102">
        <ele>934</ele>
        <time>2016-10-27T13:44:27Z</time>
      </trkpt>
      <trkpt lat="43.32579" lon="5.76136">
        <ele>937</ele>
        <time>2016-10-27T13:44:47Z</time>
      </trkpt>
      <trkpt lat="43.32598" lon="5.76188">
        <ele>928</ele>
        <time>2016-10-27T13:45:07Z</time>
      </trkpt>
      <trkpt lat="43.32594" lon="5.76237">
        <ele>936</ele>
        <time>2016-10-27T13:45:27Z</time>
      </trkpt>
      <trkpt lat="43.32607" lon="5.76338">
        <ele>957</ele>
        <time>2016-10-27T13:45:47Z</time>
      </trkpt>
      <trkpt lat="43.3264" lon="5.76402">
        <ele>958</ele>
        <time>2016-10-27T13:46:07Z</time>
      </trkpt>
      <trkpt lat="43.32652" lon="5.7649">
        <ele>971</ele>
        <time>2016-10-27T13:46:27Z</time>
      </trkpt>
      <trkpt lat="43.32688" lon="5.76582">
        <ele>965</ele>
        <time>2016-10-27T13:46:47Z</time>
      </trkpt>
      <trkpt lat="43.32688" lon="5.76582">
        <ele>965</ele>
        <time>2016-10-27T13:47:07Z</time>
      </trkpt>
      <trkpt lat="43.32691" lon="5.76641">
        <ele>969</ele>
        <time>2016-10-27T13:47:27Z</time>
      </trkpt>
      <trkpt lat="43.32698" lon="5.76692">
        <ele>969</ele>
        <time>2016-10-27T13:47:47Z</time>
      </trkpt>
      <trkpt lat="43.32705" lon="5.76757">
        <ele>962</ele>
        <time>2016-10-27T13:48:07Z</time>
      </trkpt>
      <trkpt lat="43.32747" lon="5.76969">
        <ele>941</ele>
        <time>2016-10-27T13:48:27Z</time>
      </trkpt>
    </trkseg>
  </trk>
</gpx>